<?xml version="1.0" encoding="UTF-8" standalone="no" ?>
<gpx xmlns="http://www.topografix.com/GPX/1/1" xmlns:xsi="http://www.w3.org/2001/XMLSchema-instance" xsi:schemaLocation="http://www.topografix.com/GPX/1/1 http://www.topografix.com/GPX/1/1/gpx.xsd" version="1.1" creator="VisuGPX - https://www.visugpx.com">
  <metadata>
    <name>Randonnée à Escragnolles</name>
    <desc><![CDATA[Randonnée à Escragnolles]]></desc>
  </metadata>
  <trk>
    <name><![CDATA[Cascade du Ray - Mégalithes de mons]]></name>
    <trkseg>
      <trkpt lat="43.73538" lon="6.76394">
        <ele>901.378</ele>
        <time>2007-09-23T09:58:39Z</time>
      </trkpt>
      <trkpt lat="43.73538" lon="6.76394">
        <ele>901.378</ele>
        <time>2007-09-23T09:58:40Z</time>
      </trkpt>
      <trkpt lat="43.73539" lon="6.76394">
        <ele>901.378</ele>
        <time>2007-09-23T09:58:41Z</time>
      </trkpt>
      <trkpt lat="43.73552" lon="6.76395">
        <ele>902.084</ele>
        <time>2007-09-23T09:58:57Z</time>
      </trkpt>
      <trkpt lat="43.73563" lon="6.76385">
        <ele>904.157</ele>
        <time>2007-09-23T09:59:14Z</time>
      </trkpt>
      <trkpt lat="43.7357" lon="6.76364">
        <ele>904.874</ele>
        <time>2007-09-23T09:59:33Z</time>
      </trkpt>
      <trkpt lat="43.73582" lon="6.76347">
        <ele>906.31</ele>
        <time>2007-09-23T09:59:50Z</time>
      </trkpt>
      <trkpt lat="43.73598" lon="6.76337">
        <ele>907.357</ele>
        <time>2007-09-23T10:00:09Z</time>
      </trkpt>
      <trkpt lat="43.73614" lon="6.76336">
        <ele>908.519</ele>
        <time>2007-09-23T10:00:29Z</time>
      </trkpt>
      <trkpt lat="43.73627" lon="6.76342">
        <ele>909.589</ele>
        <time>2007-09-23T10:00:46Z</time>
      </trkpt>
      <trkpt lat="43.7364" lon="6.76348">
        <ele>910.781</ele>
        <time>2007-09-23T10:01:04Z</time>
      </trkpt>
      <trkpt lat="43.73655" lon="6.76357">
        <ele>912.15</ele>
        <time>2007-09-23T10:01:22Z</time>
      </trkpt>
      <trkpt lat="43.73671" lon="6.76365">
        <ele>913.24</ele>
        <time>2007-09-23T10:01:41Z</time>
      </trkpt>
      <trkpt lat="43.73687" lon="6.76364">
        <ele>914.725</ele>
        <time>2007-09-23T10:01:59Z</time>
      </trkpt>
      <trkpt lat="43.73702" lon="6.76344">
        <ele>914.064</ele>
        <time>2007-09-23T10:02:19Z</time>
      </trkpt>
      <trkpt lat="43.73712" lon="6.7632">
        <ele>914.496</ele>
        <time>2007-09-23T10:02:41Z</time>
      </trkpt>
      <trkpt lat="43.73722" lon="6.76299">
        <ele>915.856</ele>
        <time>2007-09-23T10:03:00Z</time>
      </trkpt>
      <trkpt lat="43.73723" lon="6.76264">
        <ele>918.245</ele>
        <time>2007-09-23T10:03:21Z</time>
      </trkpt>
      <trkpt lat="43.73729" lon="6.76239">
        <ele>919.276</ele>
        <time>2007-09-23T10:03:43Z</time>
      </trkpt>
      <trkpt lat="43.73732" lon="6.76215">
        <ele>920.033</ele>
        <time>2007-09-23T10:04:02Z</time>
      </trkpt>
      <trkpt lat="43.73724" lon="6.76191">
        <ele>920.471</ele>
        <time>2007-09-23T10:04:22Z</time>
      </trkpt>
      <trkpt lat="43.73721" lon="6.76181">
        <ele>920.731</ele>
        <time>2007-09-23T10:04:30Z</time>
      </trkpt>
      <trkpt lat="43.73709" lon="6.76151">
        <ele>920.265</ele>
        <time>2007-09-23T10:04:54Z</time>
      </trkpt>
      <trkpt lat="43.73717" lon="6.76135">
        <ele>922.844</ele>
        <time>2007-09-23T10:05:12Z</time>
      </trkpt>
      <trkpt lat="43.73723" lon="6.76128">
        <ele>925.878</ele>
        <time>2007-09-23T10:05:23Z</time>
      </trkpt>
      <trkpt lat="43.73727" lon="6.76114">
        <ele>929.056</ele>
        <time>2007-09-23T10:05:38Z</time>
      </trkpt>
      <trkpt lat="43.73731" lon="6.76096">
        <ele>930.752</ele>
        <time>2007-09-23T10:05:57Z</time>
      </trkpt>
      <trkpt lat="43.73735" lon="6.76072">
        <ele>932.026</ele>
        <time>2007-09-23T10:06:20Z</time>
      </trkpt>
      <trkpt lat="43.73744" lon="6.76061">
        <ele>933.785</ele>
        <time>2007-09-23T10:06:35Z</time>
      </trkpt>
      <trkpt lat="43.7376" lon="6.76048">
        <ele>933.947</ele>
        <time>2007-09-23T10:06:55Z</time>
      </trkpt>
      <trkpt lat="43.73772" lon="6.76038">
        <ele>935.889</ele>
        <time>2007-09-23T10:07:13Z</time>
      </trkpt>
      <trkpt lat="43.73777" lon="6.76017">
        <ele>936.392</ele>
        <time>2007-09-23T10:07:32Z</time>
      </trkpt>
      <trkpt lat="43.73774" lon="6.75991">
        <ele>937.205</ele>
        <time>2007-09-23T10:07:53Z</time>
      </trkpt>
      <trkpt lat="43.73769" lon="6.75964">
        <ele>935.964</ele>
        <time>2007-09-23T10:08:14Z</time>
      </trkpt>
      <trkpt lat="43.7378" lon="6.75943">
        <ele>937.158</ele>
        <time>2007-09-23T10:08:34Z</time>
      </trkpt>
      <trkpt lat="43.73794" lon="6.75928">
        <ele>938.009</ele>
        <time>2007-09-23T10:08:54Z</time>
      </trkpt>
      <trkpt lat="43.73797" lon="6.75925">
        <ele>937.851</ele>
        <time>2007-09-23T10:08:58Z</time>
      </trkpt>
      <trkpt lat="43.7381" lon="6.75917">
        <ele>939.051</ele>
        <time>2007-09-23T10:09:15Z</time>
      </trkpt>
      <trkpt lat="43.7382" lon="6.75909">
        <ele>938.646</ele>
        <time>2007-09-23T10:09:32Z</time>
      </trkpt>
      <trkpt lat="43.73829" lon="6.75902">
        <ele>936.924</ele>
        <time>2007-09-23T10:09:45Z</time>
      </trkpt>
      <trkpt lat="43.73842" lon="6.75895">
        <ele>936.852</ele>
        <time>2007-09-23T10:10:01Z</time>
      </trkpt>
      <trkpt lat="43.73849" lon="6.75891">
        <ele>935.065</ele>
        <time>2007-09-23T10:10:13Z</time>
      </trkpt>
      <trkpt lat="43.73861" lon="6.75889">
        <ele>936.17</ele>
        <time>2007-09-23T10:10:29Z</time>
      </trkpt>
      <trkpt lat="43.73866" lon="6.75887">
        <ele>935.63</ele>
        <time>2007-09-23T10:10:48Z</time>
      </trkpt>
      <trkpt lat="43.73867" lon="6.75875">
        <ele>936.423</ele>
        <time>2007-09-23T10:11:06Z</time>
      </trkpt>
      <trkpt lat="43.73873" lon="6.75865">
        <ele>936.659</ele>
        <time>2007-09-23T10:11:21Z</time>
      </trkpt>
      <trkpt lat="43.73879" lon="6.75852">
        <ele>936.68</ele>
        <time>2007-09-23T10:11:36Z</time>
      </trkpt>
      <trkpt lat="43.73888" lon="6.75833">
        <ele>937.215</ele>
        <time>2007-09-23T10:11:53Z</time>
      </trkpt>
      <trkpt lat="43.73901" lon="6.75817">
        <ele>939.401</ele>
        <time>2007-09-23T10:12:14Z</time>
      </trkpt>
      <trkpt lat="43.73907" lon="6.75798">
        <ele>939.558</ele>
        <time>2007-09-23T10:12:30Z</time>
      </trkpt>
      <trkpt lat="43.73909" lon="6.75782">
        <ele>938.317</ele>
        <time>2007-09-23T10:12:47Z</time>
      </trkpt>
      <trkpt lat="43.73908" lon="6.7578">
        <ele>938.141</ele>
        <time>2007-09-23T10:13:05Z</time>
      </trkpt>
      <trkpt lat="43.7391" lon="6.75774">
        <ele>938.651</ele>
        <time>2007-09-23T10:13:20Z</time>
      </trkpt>
      <trkpt lat="43.73908" lon="6.75759">
        <ele>937.991</ele>
        <time>2007-09-23T10:13:32Z</time>
      </trkpt>
      <trkpt lat="43.73908" lon="6.75743">
        <ele>938.549</ele>
        <time>2007-09-23T10:13:48Z</time>
      </trkpt>
      <trkpt lat="43.73907" lon="6.75729">
        <ele>938.874</ele>
        <time>2007-09-23T10:14:05Z</time>
      </trkpt>
      <trkpt lat="43.73911" lon="6.75713">
        <ele>939.973</ele>
        <time>2007-09-23T10:14:21Z</time>
      </trkpt>
      <trkpt lat="43.73912" lon="6.75698">
        <ele>941.082</ele>
        <time>2007-09-23T10:14:35Z</time>
      </trkpt>
      <trkpt lat="43.73914" lon="6.75685">
        <ele>941.606</ele>
        <time>2007-09-23T10:14:50Z</time>
      </trkpt>
      <trkpt lat="43.7392" lon="6.75667">
        <ele>942.969</ele>
        <time>2007-09-23T10:15:07Z</time>
      </trkpt>
      <trkpt lat="43.73923" lon="6.75654">
        <ele>943.131</ele>
        <time>2007-09-23T10:15:23Z</time>
      </trkpt>
      <trkpt lat="43.73922" lon="6.75639">
        <ele>943.451</ele>
        <time>2007-09-23T10:15:37Z</time>
      </trkpt>
      <trkpt lat="43.73926" lon="6.75615">
        <ele>943.936</ele>
        <time>2007-09-23T10:15:58Z</time>
      </trkpt>
      <trkpt lat="43.73932" lon="6.75597">
        <ele>944.495</ele>
        <time>2007-09-23T10:16:16Z</time>
      </trkpt>
      <trkpt lat="43.73936" lon="6.75578">
        <ele>944.11</ele>
        <time>2007-09-23T10:16:33Z</time>
      </trkpt>
      <trkpt lat="43.7394" lon="6.75563">
        <ele>943.673</ele>
        <time>2007-09-23T10:16:48Z</time>
      </trkpt>
      <trkpt lat="43.73945" lon="6.75546">
        <ele>944.234</ele>
        <time>2007-09-23T10:17:02Z</time>
      </trkpt>
      <trkpt lat="43.73951" lon="6.75533">
        <ele>945.126</ele>
        <time>2007-09-23T10:17:17Z</time>
      </trkpt>
      <trkpt lat="43.73957" lon="6.75524">
        <ele>945.952</ele>
        <time>2007-09-23T10:17:30Z</time>
      </trkpt>
      <trkpt lat="43.73964" lon="6.7551">
        <ele>946.357</ele>
        <time>2007-09-23T10:17:46Z</time>
      </trkpt>
      <trkpt lat="43.73968" lon="6.75492">
        <ele>946.541</ele>
        <time>2007-09-23T10:17:59Z</time>
      </trkpt>
      <trkpt lat="43.73969" lon="6.75479">
        <ele>945.82</ele>
        <time>2007-09-23T10:18:10Z</time>
      </trkpt>
      <trkpt lat="43.73974" lon="6.75468">
        <ele>944.3</ele>
        <time>2007-09-23T10:18:26Z</time>
      </trkpt>
      <trkpt lat="43.73978" lon="6.75455">
        <ele>943.316</ele>
        <time>2007-09-23T10:18:42Z</time>
      </trkpt>
      <trkpt lat="43.73985" lon="6.75448">
        <ele>941.89</ele>
        <time>2007-09-23T10:18:54Z</time>
      </trkpt>
      <trkpt lat="43.73995" lon="6.75432">
        <ele>939.764</ele>
        <time>2007-09-23T10:19:12Z</time>
      </trkpt>
      <trkpt lat="43.74003" lon="6.75427">
        <ele>940.744</ele>
        <time>2007-09-23T10:19:23Z</time>
      </trkpt>
      <trkpt lat="43.74012" lon="6.75423">
        <ele>940.953</ele>
        <time>2007-09-23T10:19:36Z</time>
      </trkpt>
      <trkpt lat="43.74021" lon="6.75423">
        <ele>939.461</ele>
        <time>2007-09-23T10:19:49Z</time>
      </trkpt>
      <trkpt lat="43.74025" lon="6.7542">
        <ele>941.334</ele>
        <time>2007-09-23T10:19:57Z</time>
      </trkpt>
      <trkpt lat="43.74028" lon="6.75413">
        <ele>941.172</ele>
        <time>2007-09-23T10:20:02Z</time>
      </trkpt>
      <trkpt lat="43.74034" lon="6.75408">
        <ele>942.833</ele>
        <time>2007-09-23T10:20:18Z</time>
      </trkpt>
      <trkpt lat="43.74045" lon="6.75416">
        <ele>944.932</ele>
        <time>2007-09-23T10:20:34Z</time>
      </trkpt>
      <trkpt lat="43.74048" lon="6.75418">
        <ele>946.152</ele>
        <time>2007-09-23T10:20:37Z</time>
      </trkpt>
      <trkpt lat="43.74053" lon="6.7541">
        <ele>949.354</ele>
        <time>2007-09-23T10:20:53Z</time>
      </trkpt>
      <trkpt lat="43.74056" lon="6.75405">
        <ele>952.51</ele>
        <time>2007-09-23T10:21:10Z</time>
      </trkpt>
      <trkpt lat="43.74052" lon="6.75402">
        <ele>952.939</ele>
        <time>2007-09-23T10:21:21Z</time>
      </trkpt>
      <trkpt lat="43.74053" lon="6.7539">
        <ele>952.764</ele>
        <time>2007-09-23T10:21:36Z</time>
      </trkpt>
      <trkpt lat="43.74061" lon="6.75386">
        <ele>952.28</ele>
        <time>2007-09-23T10:21:52Z</time>
      </trkpt>
      <trkpt lat="43.74063" lon="6.75384">
        <ele>952.186</ele>
        <time>2007-09-23T10:22:14Z</time>
      </trkpt>
      <trkpt lat="43.74065" lon="6.75383">
        <ele>951.171</ele>
        <time>2007-09-23T10:22:18Z</time>
      </trkpt>
      <trkpt lat="43.74072" lon="6.75375">
        <ele>949.363</ele>
        <time>2007-09-23T10:22:32Z</time>
      </trkpt>
      <trkpt lat="43.74075" lon="6.75367">
        <ele>951.673</ele>
        <time>2007-09-23T10:22:47Z</time>
      </trkpt>
      <trkpt lat="43.74082" lon="6.75362">
        <ele>950.878</ele>
        <time>2007-09-23T10:23:04Z</time>
      </trkpt>
      <trkpt lat="43.74082" lon="6.75357">
        <ele>951.212</ele>
        <time>2007-09-23T10:23:09Z</time>
      </trkpt>
      <trkpt lat="43.74086" lon="6.75345">
        <ele>951.011</ele>
        <time>2007-09-23T10:23:22Z</time>
      </trkpt>
      <trkpt lat="43.74091" lon="6.75335">
        <ele>950.879</ele>
        <time>2007-09-23T10:23:32Z</time>
      </trkpt>
      <trkpt lat="43.74095" lon="6.75323">
        <ele>947.746</ele>
        <time>2007-09-23T10:23:50Z</time>
      </trkpt>
      <trkpt lat="43.74087" lon="6.75312">
        <ele>947.001</ele>
        <time>2007-09-23T10:24:24Z</time>
      </trkpt>
      <trkpt lat="43.74094" lon="6.75302">
        <ele>943.488</ele>
        <time>2007-09-23T10:25:01Z</time>
      </trkpt>
      <trkpt lat="43.74093" lon="6.75296">
        <ele>940.459</ele>
        <time>2007-09-23T10:25:22Z</time>
      </trkpt>
      <trkpt lat="43.74098" lon="6.75289">
        <ele>938.879</ele>
        <time>2007-09-23T10:25:39Z</time>
      </trkpt>
      <trkpt lat="43.74097" lon="6.75279">
        <ele>936.859</ele>
        <time>2007-09-23T10:25:59Z</time>
      </trkpt>
      <trkpt lat="43.74038" lon="6.75259">
        <ele>933.623</ele>
        <time>2007-09-23T10:27:03Z</time>
      </trkpt>
      <trkpt lat="43.74043" lon="6.75264">
        <ele>932.243</ele>
        <time>2007-09-23T10:27:29Z</time>
      </trkpt>
      <trkpt lat="43.74046" lon="6.75265">
        <ele>931.335</ele>
        <time>2007-09-23T10:27:48Z</time>
      </trkpt>
      <trkpt lat="43.74059" lon="6.75269">
        <ele>931.084</ele>
        <time>2007-09-23T10:28:31Z</time>
      </trkpt>
      <trkpt lat="43.74042" lon="6.75258">
        <ele>934.152</ele>
        <time>2007-09-23T10:31:56Z</time>
      </trkpt>
      <trkpt lat="43.74048" lon="6.75274">
        <ele>934.628</ele>
        <time>2007-09-23T10:32:37Z</time>
      </trkpt>
      <trkpt lat="43.74052" lon="6.75305">
        <ele>931.619</ele>
        <time>2007-09-23T10:33:32Z</time>
      </trkpt>
      <trkpt lat="43.74056" lon="6.75279">
        <ele>932.788</ele>
        <time>2007-09-23T10:34:00Z</time>
      </trkpt>
      <trkpt lat="43.74053" lon="6.75276">
        <ele>932.894</ele>
        <time>2007-09-23T10:34:09Z</time>
      </trkpt>
      <trkpt lat="43.74049" lon="6.75283">
        <ele>931.407</ele>
        <time>2007-09-23T10:34:31Z</time>
      </trkpt>
      <trkpt lat="43.74049" lon="6.7529">
        <ele>931.042</ele>
        <time>2007-09-23T10:34:55Z</time>
      </trkpt>
      <trkpt lat="43.74037" lon="6.75281">
        <ele>934.05</ele>
        <time>2007-09-23T10:37:09Z</time>
      </trkpt>
      <trkpt lat="43.74038" lon="6.7528">
        <ele>935.94</ele>
        <time>2007-09-23T10:38:09Z</time>
      </trkpt>
      <trkpt lat="43.74039" lon="6.75276">
        <ele>936.653</ele>
        <time>2007-09-23T10:38:32Z</time>
      </trkpt>
      <trkpt lat="43.74046" lon="6.75278">
        <ele>937.916</ele>
        <time>2007-09-23T10:42:25Z</time>
      </trkpt>
      <trkpt lat="43.74051" lon="6.75264">
        <ele>938.339</ele>
        <time>2007-09-23T10:42:45Z</time>
      </trkpt>
      <trkpt lat="43.74053" lon="6.75275">
        <ele>937.406</ele>
        <time>2007-09-23T10:43:03Z</time>
      </trkpt>
      <trkpt lat="43.74057" lon="6.75283">
        <ele>937.166</ele>
        <time>2007-09-23T10:44:41Z</time>
      </trkpt>
      <trkpt lat="43.74058" lon="6.75283">
        <ele>938.869</ele>
        <time>2007-09-23T10:44:44Z</time>
      </trkpt>
      <trkpt lat="43.74054" lon="6.75277">
        <ele>935.738</ele>
        <time>2007-09-23T10:46:09Z</time>
      </trkpt>
      <trkpt lat="43.74046" lon="6.7528">
        <ele>935.988</ele>
        <time>2007-09-23T10:46:57Z</time>
      </trkpt>
      <trkpt lat="43.74054" lon="6.75314">
        <ele>936.332</ele>
        <time>2007-09-23T10:47:10Z</time>
      </trkpt>
      <trkpt lat="43.7406" lon="6.7533">
        <ele>935.937</ele>
        <time>2007-09-23T10:47:19Z</time>
      </trkpt>
      <trkpt lat="43.74053" lon="6.75298">
        <ele>938.113</ele>
        <time>2007-09-23T10:49:29Z</time>
      </trkpt>
      <trkpt lat="43.74048" lon="6.75289">
        <ele>938.233</ele>
        <time>2007-09-23T10:53:19Z</time>
      </trkpt>
      <trkpt lat="43.74052" lon="6.75282">
        <ele>936.877</ele>
        <time>2007-09-23T10:55:12Z</time>
      </trkpt>
      <trkpt lat="43.74062" lon="6.75279">
        <ele>933.861</ele>
        <time>2007-09-23T10:59:03Z</time>
      </trkpt>
      <trkpt lat="43.74065" lon="6.75288">
        <ele>931.474</ele>
        <time>2007-09-23T11:02:45Z</time>
      </trkpt>
      <trkpt lat="43.74064" lon="6.75288">
        <ele>931.723</ele>
        <time>2007-09-23T11:03:03Z</time>
      </trkpt>
      <trkpt lat="43.74057" lon="6.75283">
        <ele>931.219</ele>
        <time>2007-09-23T11:03:52Z</time>
      </trkpt>
      <trkpt lat="43.74046" lon="6.75276">
        <ele>930.643</ele>
        <time>2007-09-23T11:05:22Z</time>
      </trkpt>
      <trkpt lat="43.74058" lon="6.75291">
        <ele>930.347</ele>
        <time>2007-09-23T11:05:39Z</time>
      </trkpt>
      <trkpt lat="43.74057" lon="6.75306">
        <ele>931.344</ele>
        <time>2007-09-23T11:07:03Z</time>
      </trkpt>
      <trkpt lat="43.74045" lon="6.75326">
        <ele>931.292</ele>
        <time>2007-09-23T11:07:16Z</time>
      </trkpt>
      <trkpt lat="43.74037" lon="6.75291">
        <ele>934.501</ele>
        <time>2007-09-23T11:09:58Z</time>
      </trkpt>
      <trkpt lat="43.7403" lon="6.75291">
        <ele>937.512</ele>
        <time>2007-09-23T11:13:01Z</time>
      </trkpt>
      <trkpt lat="43.74033" lon="6.75286">
        <ele>940.777</ele>
        <time>2007-09-23T11:16:06Z</time>
      </trkpt>
      <trkpt lat="43.74028" lon="6.75292">
        <ele>943.867</ele>
        <time>2007-09-23T11:19:15Z</time>
      </trkpt>
      <trkpt lat="43.7401" lon="6.75299">
        <ele>944.784</ele>
        <time>2007-09-23T11:20:13Z</time>
      </trkpt>
      <trkpt lat="43.74017" lon="6.75303">
        <ele>944.76</ele>
        <time>2007-09-23T11:20:27Z</time>
      </trkpt>
      <trkpt lat="43.74012" lon="6.75287">
        <ele>946.683</ele>
        <time>2007-09-23T11:21:10Z</time>
      </trkpt>
      <trkpt lat="43.73985" lon="6.75292">
        <ele>949.742</ele>
        <time>2007-09-23T11:22:14Z</time>
      </trkpt>
      <trkpt lat="43.74003" lon="6.75295">
        <ele>952.876</ele>
        <time>2007-09-23T11:23:09Z</time>
      </trkpt>
      <trkpt lat="43.7401" lon="6.75284">
        <ele>956.022</ele>
        <time>2007-09-23T11:25:06Z</time>
      </trkpt>
      <trkpt lat="43.74025" lon="6.75279">
        <ele>952.81</ele>
        <time>2007-09-23T11:28:05Z</time>
      </trkpt>
      <trkpt lat="43.74024" lon="6.75277">
        <ele>957.061</ele>
        <time>2007-09-23T11:28:06Z</time>
      </trkpt>
      <trkpt lat="43.74025" lon="6.75272">
        <ele>958.765</ele>
        <time>2007-09-23T11:28:09Z</time>
      </trkpt>
      <trkpt lat="43.74019" lon="6.75264">
        <ele>957.533</ele>
        <time>2007-09-23T11:28:52Z</time>
      </trkpt>
      <trkpt lat="43.7402" lon="6.75263">
        <ele>955.856</ele>
        <time>2007-09-23T11:28:55Z</time>
      </trkpt>
      <trkpt lat="43.74024" lon="6.75266">
        <ele>960.825</ele>
        <time>2007-09-23T11:28:57Z</time>
      </trkpt>
      <trkpt lat="43.74025" lon="6.75267">
        <ele>958.609</ele>
        <time>2007-09-23T11:28:58Z</time>
      </trkpt>
      <trkpt lat="43.74025" lon="6.75269">
        <ele>957.974</ele>
        <time>2007-09-23T11:29:00Z</time>
      </trkpt>
      <trkpt lat="43.74027" lon="6.75276">
        <ele>957.501</ele>
        <time>2007-09-23T11:29:06Z</time>
      </trkpt>
      <trkpt lat="43.74045" lon="6.75305">
        <ele>958.06</ele>
        <time>2007-09-23T11:29:19Z</time>
      </trkpt>
      <trkpt lat="43.74026" lon="6.75281">
        <ele>958.091</ele>
        <time>2007-09-23T11:29:36Z</time>
      </trkpt>
      <trkpt lat="43.74037" lon="6.75276">
        <ele>958.124</ele>
        <time>2007-09-23T11:29:54Z</time>
      </trkpt>
      <trkpt lat="43.74043" lon="6.75274">
        <ele>957.749</ele>
        <time>2007-09-23T11:30:07Z</time>
      </trkpt>
      <trkpt lat="43.74029" lon="6.75251">
        <ele>957.506</ele>
        <time>2007-09-23T11:30:20Z</time>
      </trkpt>
      <trkpt lat="43.74036" lon="6.75261">
        <ele>957.413</ele>
        <time>2007-09-23T11:30:24Z</time>
      </trkpt>
      <trkpt lat="43.74046" lon="6.75273">
        <ele>957.636</ele>
        <time>2007-09-23T11:30:33Z</time>
      </trkpt>
      <trkpt lat="43.74039" lon="6.75272">
        <ele>957.346</ele>
        <time>2007-09-23T11:30:47Z</time>
      </trkpt>
      <trkpt lat="43.74031" lon="6.75258">
        <ele>957.069</ele>
        <time>2007-09-23T11:30:59Z</time>
      </trkpt>
      <trkpt lat="43.74039" lon="6.75252">
        <ele>956.343</ele>
        <time>2007-09-23T11:31:19Z</time>
      </trkpt>
      <trkpt lat="43.74045" lon="6.75277">
        <ele>955.54</ele>
        <time>2007-09-23T11:31:29Z</time>
      </trkpt>
      <trkpt lat="43.74054" lon="6.75289">
        <ele>955.376</ele>
        <time>2007-09-23T11:31:39Z</time>
      </trkpt>
      <trkpt lat="43.74041" lon="6.75278">
        <ele>955.459</ele>
        <time>2007-09-23T11:32:15Z</time>
      </trkpt>
      <trkpt lat="43.74038" lon="6.75276">
        <ele>954.78</ele>
        <time>2007-09-23T11:32:21Z</time>
      </trkpt>
      <trkpt lat="43.74035" lon="6.75272">
        <ele>954.557</ele>
        <time>2007-09-23T11:32:41Z</time>
      </trkpt>
      <trkpt lat="43.74024" lon="6.75276">
        <ele>954.865</ele>
        <time>2007-09-23T11:33:47Z</time>
      </trkpt>
      <trkpt lat="43.74043" lon="6.75271">
        <ele>955.274</ele>
        <time>2007-09-23T11:34:23Z</time>
      </trkpt>
      <trkpt lat="43.74046" lon="6.75288">
        <ele>954.76</ele>
        <time>2007-09-23T11:35:23Z</time>
      </trkpt>
      <trkpt lat="43.74062" lon="6.75276">
        <ele>951.555</ele>
        <time>2007-09-23T11:39:16Z</time>
      </trkpt>
      <trkpt lat="43.74061" lon="6.75276">
        <ele>951.804</ele>
        <time>2007-09-23T11:39:46Z</time>
      </trkpt>
      <trkpt lat="43.74078" lon="6.75274">
        <ele>951.341</ele>
        <time>2007-09-23T11:40:30Z</time>
      </trkpt>
      <trkpt lat="43.74059" lon="6.75278">
        <ele>951.531</ele>
        <time>2007-09-23T11:40:46Z</time>
      </trkpt>
      <trkpt lat="43.74063" lon="6.75272">
        <ele>951.019</ele>
        <time>2007-09-23T11:41:58Z</time>
      </trkpt>
      <trkpt lat="43.74055" lon="6.75271">
        <ele>950.469</ele>
        <time>2007-09-23T11:42:14Z</time>
      </trkpt>
      <trkpt lat="43.74052" lon="6.75269">
        <ele>950.624</ele>
        <time>2007-09-23T11:42:40Z</time>
      </trkpt>
      <trkpt lat="43.74042" lon="6.75262">
        <ele>950.641</ele>
        <time>2007-09-23T11:45:28Z</time>
      </trkpt>
      <trkpt lat="43.74039" lon="6.75263">
        <ele>950.672</ele>
        <time>2007-09-23T11:45:50Z</time>
      </trkpt>
      <trkpt lat="43.74037" lon="6.75261">
        <ele>950.617</ele>
        <time>2007-09-23T11:45:52Z</time>
      </trkpt>
      <trkpt lat="43.74047" lon="6.75254">
        <ele>951.512</ele>
        <time>2007-09-23T11:46:06Z</time>
      </trkpt>
      <trkpt lat="43.74026" lon="6.75265">
        <ele>950.379</ele>
        <time>2007-09-23T11:46:23Z</time>
      </trkpt>
      <trkpt lat="43.74019" lon="6.75271">
        <ele>951.164</ele>
        <time>2007-09-23T11:46:34Z</time>
      </trkpt>
      <trkpt lat="43.74057" lon="6.75273">
        <ele>951.497</ele>
        <time>2007-09-23T11:47:56Z</time>
      </trkpt>
      <trkpt lat="43.74049" lon="6.75287">
        <ele>951.317</ele>
        <time>2007-09-23T11:48:11Z</time>
      </trkpt>
      <trkpt lat="43.74031" lon="6.75273">
        <ele>951.219</ele>
        <time>2007-09-23T11:53:47Z</time>
      </trkpt>
      <trkpt lat="43.74049" lon="6.75273">
        <ele>951.734</ele>
        <time>2007-09-23T11:54:27Z</time>
      </trkpt>
      <trkpt lat="43.74062" lon="6.75274">
        <ele>951.613</ele>
        <time>2007-09-23T11:55:12Z</time>
      </trkpt>
      <trkpt lat="43.74061" lon="6.75273">
        <ele>951.137</ele>
        <time>2007-09-23T11:55:42Z</time>
      </trkpt>
      <trkpt lat="43.74037" lon="6.75269">
        <ele>953.375</ele>
        <time>2007-09-23T11:58:40Z</time>
      </trkpt>
      <trkpt lat="43.74031" lon="6.75275">
        <ele>953.164</ele>
        <time>2007-09-23T11:59:38Z</time>
      </trkpt>
      <trkpt lat="43.74035" lon="6.75285">
        <ele>955.497</ele>
        <time>2007-09-23T12:00:02Z</time>
      </trkpt>
      <trkpt lat="43.7404" lon="6.75297">
        <ele>955.032</ele>
        <time>2007-09-23T12:00:27Z</time>
      </trkpt>
      <trkpt lat="43.74043" lon="6.75302">
        <ele>958.692</ele>
        <time>2007-09-23T12:00:50Z</time>
      </trkpt>
      <trkpt lat="43.74034" lon="6.75318">
        <ele>961.976</ele>
        <time>2007-09-23T12:01:15Z</time>
      </trkpt>
      <trkpt lat="43.74064" lon="6.7533">
        <ele>965.023</ele>
        <time>2007-09-23T12:01:37Z</time>
      </trkpt>
      <trkpt lat="43.74048" lon="6.75339">
        <ele>968.751</ele>
        <time>2007-09-23T12:02:35Z</time>
      </trkpt>
      <trkpt lat="43.74059" lon="6.75341">
        <ele>972.471</ele>
        <time>2007-09-23T12:03:06Z</time>
      </trkpt>
      <trkpt lat="43.74059" lon="6.75341">
        <ele>972.675</ele>
        <time>2007-09-23T12:03:07Z</time>
      </trkpt>
      <trkpt lat="43.74068" lon="6.7535">
        <ele>975.891</ele>
        <time>2007-09-23T12:03:33Z</time>
      </trkpt>
      <trkpt lat="43.74067" lon="6.75361">
        <ele>979.032</ele>
        <time>2007-09-23T12:03:51Z</time>
      </trkpt>
      <trkpt lat="43.74062" lon="6.7537">
        <ele>982.341</ele>
        <time>2007-09-23T12:04:26Z</time>
      </trkpt>
      <trkpt lat="43.74068" lon="6.75379">
        <ele>985.599</ele>
        <time>2007-09-23T12:04:49Z</time>
      </trkpt>
      <trkpt lat="43.74056" lon="6.75421">
        <ele>982.267</ele>
        <time>2007-09-23T12:06:07Z</time>
      </trkpt>
      <trkpt lat="43.74042" lon="6.75428">
        <ele>979.04</ele>
        <time>2007-09-23T12:06:38Z</time>
      </trkpt>
      <trkpt lat="43.74028" lon="6.7543">
        <ele>977.331</ele>
        <time>2007-09-23T12:06:52Z</time>
      </trkpt>
      <trkpt lat="43.74036" lon="6.75437">
        <ele>977.331</ele>
        <time>2007-09-23T12:07:00Z</time>
      </trkpt>
      <trkpt lat="43.74032" lon="6.75441">
        <ele>977.771</ele>
        <time>2007-09-23T12:07:08Z</time>
      </trkpt>
      <trkpt lat="43.7402" lon="6.75437">
        <ele>975.525</ele>
        <time>2007-09-23T12:07:19Z</time>
      </trkpt>
      <trkpt lat="43.74011" lon="6.75432">
        <ele>975.716</ele>
        <time>2007-09-23T12:07:29Z</time>
      </trkpt>
      <trkpt lat="43.74008" lon="6.75421">
        <ele>975.956</ele>
        <time>2007-09-23T12:07:39Z</time>
      </trkpt>
      <trkpt lat="43.74015" lon="6.75417">
        <ele>975.087</ele>
        <time>2007-09-23T12:07:55Z</time>
      </trkpt>
      <trkpt lat="43.74012" lon="6.75425">
        <ele>975.378</ele>
        <time>2007-09-23T12:08:04Z</time>
      </trkpt>
      <trkpt lat="43.74009" lon="6.75426">
        <ele>975.015</ele>
        <time>2007-09-23T12:08:07Z</time>
      </trkpt>
      <trkpt lat="43.73994" lon="6.75428">
        <ele>973.944</ele>
        <time>2007-09-23T12:08:17Z</time>
      </trkpt>
      <trkpt lat="43.73984" lon="6.75428">
        <ele>972.636</ele>
        <time>2007-09-23T12:08:28Z</time>
      </trkpt>
      <trkpt lat="43.7398" lon="6.75429">
        <ele>971.1</ele>
        <time>2007-09-23T12:08:37Z</time>
      </trkpt>
      <trkpt lat="43.7397" lon="6.75431">
        <ele>970.718</ele>
        <time>2007-09-23T12:09:01Z</time>
      </trkpt>
      <trkpt lat="43.73959" lon="6.75427">
        <ele>970.019</ele>
        <time>2007-09-23T12:09:30Z</time>
      </trkpt>
      <trkpt lat="43.73978" lon="6.75438">
        <ele>969.651</ele>
        <time>2007-09-23T12:09:41Z</time>
      </trkpt>
      <trkpt lat="43.73982" lon="6.75444">
        <ele>969.302</ele>
        <time>2007-09-23T12:09:49Z</time>
      </trkpt>
      <trkpt lat="43.73985" lon="6.75445">
        <ele>968.621</ele>
        <time>2007-09-23T12:09:59Z</time>
      </trkpt>
      <trkpt lat="43.73966" lon="6.75442">
        <ele>967.453</ele>
        <time>2007-09-23T12:10:08Z</time>
      </trkpt>
      <trkpt lat="43.73956" lon="6.75446">
        <ele>965.762</ele>
        <time>2007-09-23T12:10:19Z</time>
      </trkpt>
      <trkpt lat="43.73941" lon="6.75446">
        <ele>963.662</ele>
        <time>2007-09-23T12:10:29Z</time>
      </trkpt>
      <trkpt lat="43.73934" lon="6.7545">
        <ele>960.536</ele>
        <time>2007-09-23T12:10:38Z</time>
      </trkpt>
      <trkpt lat="43.73924" lon="6.75446">
        <ele>959.041</ele>
        <time>2007-09-23T12:10:46Z</time>
      </trkpt>
      <trkpt lat="43.73913" lon="6.75442">
        <ele>957.786</ele>
        <time>2007-09-23T12:10:59Z</time>
      </trkpt>
      <trkpt lat="43.73898" lon="6.75438">
        <ele>955.049</ele>
        <time>2007-09-23T12:11:12Z</time>
      </trkpt>
      <trkpt lat="43.73894" lon="6.75436">
        <ele>954.211</ele>
        <time>2007-09-23T12:11:16Z</time>
      </trkpt>
      <trkpt lat="43.73891" lon="6.75435">
        <ele>953.121</ele>
        <time>2007-09-23T12:11:19Z</time>
      </trkpt>
      <trkpt lat="43.73887" lon="6.75438">
        <ele>952.662</ele>
        <time>2007-09-23T12:11:30Z</time>
      </trkpt>
      <trkpt lat="43.73883" lon="6.75443">
        <ele>950.875</ele>
        <time>2007-09-23T12:11:41Z</time>
      </trkpt>
      <trkpt lat="43.73868" lon="6.75443">
        <ele>949.036</ele>
        <time>2007-09-23T12:11:54Z</time>
      </trkpt>
      <trkpt lat="43.73859" lon="6.75432">
        <ele>945.922</ele>
        <time>2007-09-23T12:12:06Z</time>
      </trkpt>
      <trkpt lat="43.73851" lon="6.75437">
        <ele>944.103</ele>
        <time>2007-09-23T12:12:23Z</time>
      </trkpt>
      <trkpt lat="43.73851" lon="6.75436">
        <ele>941.426</ele>
        <time>2007-09-23T12:12:46Z</time>
      </trkpt>
      <trkpt lat="43.7384" lon="6.75443">
        <ele>938.761</ele>
        <time>2007-09-23T12:13:09Z</time>
      </trkpt>
      <trkpt lat="43.73833" lon="6.75443">
        <ele>937.968</ele>
        <time>2007-09-23T12:13:22Z</time>
      </trkpt>
      <trkpt lat="43.73829" lon="6.75442">
        <ele>936.633</ele>
        <time>2007-09-23T12:13:25Z</time>
      </trkpt>
      <trkpt lat="43.73819" lon="6.75452">
        <ele>934.075</ele>
        <time>2007-09-23T12:13:41Z</time>
      </trkpt>
      <trkpt lat="43.73809" lon="6.75452">
        <ele>930.73</ele>
        <time>2007-09-23T12:13:50Z</time>
      </trkpt>
      <trkpt lat="43.73808" lon="6.75452">
        <ele>930.516</ele>
        <time>2007-09-23T12:13:51Z</time>
      </trkpt>
      <trkpt lat="43.73795" lon="6.75449">
        <ele>927.927</ele>
        <time>2007-09-23T12:14:03Z</time>
      </trkpt>
      <trkpt lat="43.73781" lon="6.7545">
        <ele>924.664</ele>
        <time>2007-09-23T12:14:18Z</time>
      </trkpt>
      <trkpt lat="43.73771" lon="6.75447">
        <ele>922.72</ele>
        <time>2007-09-23T12:14:35Z</time>
      </trkpt>
      <trkpt lat="43.73767" lon="6.7545">
        <ele>922.106</ele>
        <time>2007-09-23T12:14:41Z</time>
      </trkpt>
      <trkpt lat="43.73755" lon="6.7545">
        <ele>918.328</ele>
        <time>2007-09-23T12:14:57Z</time>
      </trkpt>
      <trkpt lat="43.73753" lon="6.75461">
        <ele>915.16</ele>
        <time>2007-09-23T12:15:11Z</time>
      </trkpt>
      <trkpt lat="43.73748" lon="6.75462">
        <ele>914.71</ele>
        <time>2007-09-23T12:15:16Z</time>
      </trkpt>
      <trkpt lat="43.73741" lon="6.75469">
        <ele>912.961</ele>
        <time>2007-09-23T12:15:26Z</time>
      </trkpt>
      <trkpt lat="43.73729" lon="6.75462">
        <ele>910.612</ele>
        <time>2007-09-23T12:15:39Z</time>
      </trkpt>
      <trkpt lat="43.7372" lon="6.75465">
        <ele>908.754</ele>
        <time>2007-09-23T12:15:50Z</time>
      </trkpt>
      <trkpt lat="43.73709" lon="6.75464">
        <ele>908.789</ele>
        <time>2007-09-23T12:16:05Z</time>
      </trkpt>
      <trkpt lat="43.7371" lon="6.75465">
        <ele>908.378</ele>
        <time>2007-09-23T12:16:08Z</time>
      </trkpt>
      <trkpt lat="43.73705" lon="6.75464">
        <ele>906.409</ele>
        <time>2007-09-23T12:16:13Z</time>
      </trkpt>
      <trkpt lat="43.73703" lon="6.75466">
        <ele>903.592</ele>
        <time>2007-09-23T12:16:21Z</time>
      </trkpt>
      <trkpt lat="43.737" lon="6.75471">
        <ele>902.196</ele>
        <time>2007-09-23T12:16:31Z</time>
      </trkpt>
      <trkpt lat="43.73694" lon="6.75474">
        <ele>899.508</ele>
        <time>2007-09-23T12:16:43Z</time>
      </trkpt>
      <trkpt lat="43.73683" lon="6.75478">
        <ele>899.11</ele>
        <time>2007-09-23T12:17:07Z</time>
      </trkpt>
      <trkpt lat="43.73673" lon="6.75472">
        <ele>900.043</ele>
        <time>2007-09-23T12:17:16Z</time>
      </trkpt>
      <trkpt lat="43.73666" lon="6.75476">
        <ele>902.601</ele>
        <time>2007-09-23T12:17:40Z</time>
      </trkpt>
      <trkpt lat="43.73667" lon="6.75482">
        <ele>903.439</ele>
        <time>2007-09-23T12:18:08Z</time>
      </trkpt>
      <trkpt lat="43.7367" lon="6.75486">
        <ele>901.8</ele>
        <time>2007-09-23T12:20:03Z</time>
      </trkpt>
      <trkpt lat="43.73661" lon="6.7549">
        <ele>900.75</ele>
        <time>2007-09-23T12:20:16Z</time>
      </trkpt>
      <trkpt lat="43.73659" lon="6.75487">
        <ele>900.006</ele>
        <time>2007-09-23T12:21:06Z</time>
      </trkpt>
      <trkpt lat="43.73658" lon="6.75494">
        <ele>897.672</ele>
        <time>2007-09-23T12:21:26Z</time>
      </trkpt>
      <trkpt lat="43.73653" lon="6.75504">
        <ele>894.306</ele>
        <time>2007-09-23T12:21:38Z</time>
      </trkpt>
      <trkpt lat="43.73652" lon="6.75505">
        <ele>894.096</ele>
        <time>2007-09-23T12:21:39Z</time>
      </trkpt>
      <trkpt lat="43.73644" lon="6.75513">
        <ele>893.959</ele>
        <time>2007-09-23T12:21:49Z</time>
      </trkpt>
      <trkpt lat="43.73633" lon="6.75519">
        <ele>895.191</ele>
        <time>2007-09-23T12:22:00Z</time>
      </trkpt>
      <trkpt lat="43.73629" lon="6.7552">
        <ele>895.308</ele>
        <time>2007-09-23T12:22:09Z</time>
      </trkpt>
      <trkpt lat="43.73609" lon="6.75517">
        <ele>896.515</ele>
        <time>2007-09-23T12:22:28Z</time>
      </trkpt>
      <trkpt lat="43.73606" lon="6.75514">
        <ele>896.425</ele>
        <time>2007-09-23T12:22:30Z</time>
      </trkpt>
      <trkpt lat="43.73599" lon="6.75505">
        <ele>897.656</ele>
        <time>2007-09-23T12:22:38Z</time>
      </trkpt>
      <trkpt lat="43.73591" lon="6.75504">
        <ele>898.292</ele>
        <time>2007-09-23T12:22:48Z</time>
      </trkpt>
      <trkpt lat="43.73584" lon="6.75505">
        <ele>897.538</ele>
        <time>2007-09-23T12:22:57Z</time>
      </trkpt>
      <trkpt lat="43.73582" lon="6.75507">
        <ele>897.752</ele>
        <time>2007-09-23T12:23:02Z</time>
      </trkpt>
      <trkpt lat="43.73572" lon="6.75508">
        <ele>898.415</ele>
        <time>2007-09-23T12:23:13Z</time>
      </trkpt>
      <trkpt lat="43.7356" lon="6.75512">
        <ele>900.293</ele>
        <time>2007-09-23T12:23:26Z</time>
      </trkpt>
      <trkpt lat="43.73546" lon="6.75515">
        <ele>898.642</ele>
        <time>2007-09-23T12:23:37Z</time>
      </trkpt>
      <trkpt lat="43.73536" lon="6.75514">
        <ele>898.38</ele>
        <time>2007-09-23T12:23:50Z</time>
      </trkpt>
      <trkpt lat="43.73524" lon="6.75512">
        <ele>901.131</ele>
        <time>2007-09-23T12:24:09Z</time>
      </trkpt>
      <trkpt lat="43.73516" lon="6.75504">
        <ele>901.596</ele>
        <time>2007-09-23T12:24:19Z</time>
      </trkpt>
      <trkpt lat="43.73511" lon="6.75494">
        <ele>904.732</ele>
        <time>2007-09-23T12:24:32Z</time>
      </trkpt>
      <trkpt lat="43.73503" lon="6.75491">
        <ele>905.928</ele>
        <time>2007-09-23T12:24:42Z</time>
      </trkpt>
      <trkpt lat="43.73494" lon="6.75484">
        <ele>908.994</ele>
        <time>2007-09-23T12:25:02Z</time>
      </trkpt>
      <trkpt lat="43.73469" lon="6.75479">
        <ele>909.783</ele>
        <time>2007-09-23T12:25:29Z</time>
      </trkpt>
      <trkpt lat="43.73456" lon="6.75481">
        <ele>909.99</ele>
        <time>2007-09-23T12:25:40Z</time>
      </trkpt>
      <trkpt lat="43.73436" lon="6.7548">
        <ele>911.714</ele>
        <time>2007-09-23T12:26:05Z</time>
      </trkpt>
      <trkpt lat="43.73432" lon="6.75478">
        <ele>913.405</ele>
        <time>2007-09-23T12:26:10Z</time>
      </trkpt>
      <trkpt lat="43.73418" lon="6.75484">
        <ele>916.433</ele>
        <time>2007-09-23T12:26:33Z</time>
      </trkpt>
      <trkpt lat="43.73411" lon="6.7549">
        <ele>916.559</ele>
        <time>2007-09-23T12:26:47Z</time>
      </trkpt>
      <trkpt lat="43.73405" lon="6.75493">
        <ele>917.689</ele>
        <time>2007-09-23T12:27:11Z</time>
      </trkpt>
      <trkpt lat="43.73398" lon="6.75494">
        <ele>917.789</ele>
        <time>2007-09-23T12:27:23Z</time>
      </trkpt>
      <trkpt lat="43.73392" lon="6.75497">
        <ele>917.144</ele>
        <time>2007-09-23T12:27:38Z</time>
      </trkpt>
      <trkpt lat="43.73385" lon="6.755">
        <ele>916.519</ele>
        <time>2007-09-23T12:27:52Z</time>
      </trkpt>
      <trkpt lat="43.73384" lon="6.755">
        <ele>916.035</ele>
        <time>2007-09-23T12:27:53Z</time>
      </trkpt>
      <trkpt lat="43.73378" lon="6.75494">
        <ele>917.641</ele>
        <time>2007-09-23T12:28:04Z</time>
      </trkpt>
      <trkpt lat="43.73371" lon="6.75502">
        <ele>917.706</ele>
        <time>2007-09-23T12:28:15Z</time>
      </trkpt>
      <trkpt lat="43.73369" lon="6.75512">
        <ele>920.776</ele>
        <time>2007-09-23T12:28:28Z</time>
      </trkpt>
      <trkpt lat="43.73365" lon="6.75519">
        <ele>923.204</ele>
        <time>2007-09-23T12:28:41Z</time>
      </trkpt>
      <trkpt lat="43.73361" lon="6.75522">
        <ele>923.722</ele>
        <time>2007-09-23T12:28:54Z</time>
      </trkpt>
      <trkpt lat="43.73355" lon="6.7551">
        <ele>926.958</ele>
        <time>2007-09-23T12:29:19Z</time>
      </trkpt>
      <trkpt lat="43.73346" lon="6.75501">
        <ele>929.993</ele>
        <time>2007-09-23T12:29:38Z</time>
      </trkpt>
      <trkpt lat="43.73341" lon="6.75512">
        <ele>932.628</ele>
        <time>2007-09-23T12:29:59Z</time>
      </trkpt>
      <trkpt lat="43.73339" lon="6.7553">
        <ele>935.921</ele>
        <time>2007-09-23T12:30:23Z</time>
      </trkpt>
      <trkpt lat="43.73329" lon="6.7554">
        <ele>936.585</ele>
        <time>2007-09-23T12:30:57Z</time>
      </trkpt>
      <trkpt lat="43.73327" lon="6.75542">
        <ele>936.241</ele>
        <time>2007-09-23T12:31:02Z</time>
      </trkpt>
      <trkpt lat="43.73312" lon="6.75541">
        <ele>937.247</ele>
        <time>2007-09-23T12:31:18Z</time>
      </trkpt>
      <trkpt lat="43.73302" lon="6.75543">
        <ele>938.505</ele>
        <time>2007-09-23T12:31:34Z</time>
      </trkpt>
      <trkpt lat="43.73286" lon="6.75541">
        <ele>939.276</ele>
        <time>2007-09-23T12:31:52Z</time>
      </trkpt>
      <trkpt lat="43.73275" lon="6.75543">
        <ele>939.795</ele>
        <time>2007-09-23T12:32:06Z</time>
      </trkpt>
      <trkpt lat="43.73262" lon="6.75542">
        <ele>940.189</ele>
        <time>2007-09-23T12:32:53Z</time>
      </trkpt>
      <trkpt lat="43.73259" lon="6.75543">
        <ele>941.088</ele>
        <time>2007-09-23T12:33:17Z</time>
      </trkpt>
      <trkpt lat="43.73249" lon="6.75542">
        <ele>943.66</ele>
        <time>2007-09-23T12:33:49Z</time>
      </trkpt>
      <trkpt lat="43.73237" lon="6.75541">
        <ele>943.889</ele>
        <time>2007-09-23T12:34:03Z</time>
      </trkpt>
      <trkpt lat="43.73232" lon="6.75542">
        <ele>944.842</ele>
        <time>2007-09-23T12:34:24Z</time>
      </trkpt>
      <trkpt lat="43.73227" lon="6.75542">
        <ele>945.099</ele>
        <time>2007-09-23T12:34:46Z</time>
      </trkpt>
      <trkpt lat="43.7322" lon="6.75536">
        <ele>946.007</ele>
        <time>2007-09-23T12:35:00Z</time>
      </trkpt>
      <trkpt lat="43.73217" lon="6.75534">
        <ele>945.301</ele>
        <time>2007-09-23T12:35:16Z</time>
      </trkpt>
      <trkpt lat="43.73213" lon="6.7553">
        <ele>946.465</ele>
        <time>2007-09-23T12:35:31Z</time>
      </trkpt>
      <trkpt lat="43.73209" lon="6.75527">
        <ele>948.546</ele>
        <time>2007-09-23T12:35:44Z</time>
      </trkpt>
      <trkpt lat="43.73209" lon="6.75527">
        <ele>944.817</ele>
        <time>2007-09-23T12:35:49Z</time>
      </trkpt>
      <trkpt lat="43.73209" lon="6.75527">
        <ele>948.796</ele>
        <time>2007-09-23T12:35:51Z</time>
      </trkpt>
      <trkpt lat="43.73209" lon="6.75527">
        <ele>948.698</ele>
        <time>2007-09-23T12:35:52Z</time>
      </trkpt>
      <trkpt lat="43.7321" lon="6.75527">
        <ele>946.029</ele>
        <time>2007-09-23T12:35:58Z</time>
      </trkpt>
      <trkpt lat="43.7321" lon="6.75528">
        <ele>943.777</ele>
        <time>2007-09-23T12:36:00Z</time>
      </trkpt>
      <trkpt lat="43.7321" lon="6.75527">
        <ele>941.057</ele>
        <time>2007-09-23T12:36:04Z</time>
      </trkpt>
      <trkpt lat="43.7321" lon="6.75527">
        <ele>948.957</ele>
        <time>2007-09-23T12:36:07Z</time>
      </trkpt>
      <trkpt lat="43.73209" lon="6.75527">
        <ele>948.722</ele>
        <time>2007-09-23T12:36:08Z</time>
      </trkpt>
      <trkpt lat="43.73198" lon="6.7552">
        <ele>949.159</ele>
        <time>2007-09-23T12:36:25Z</time>
      </trkpt>
      <trkpt lat="43.73191" lon="6.75514">
        <ele>950.007</ele>
        <time>2007-09-23T12:36:37Z</time>
      </trkpt>
      <trkpt lat="43.73178" lon="6.75506">
        <ele>950.827</ele>
        <time>2007-09-23T12:36:57Z</time>
      </trkpt>
      <trkpt lat="43.73169" lon="6.755">
        <ele>950.846</ele>
        <time>2007-09-23T12:37:11Z</time>
      </trkpt>
      <trkpt lat="43.73158" lon="6.75488">
        <ele>952.346</ele>
        <time>2007-09-23T12:37:29Z</time>
      </trkpt>
      <trkpt lat="43.73148" lon="6.75477">
        <ele>952.812</ele>
        <time>2007-09-23T12:37:47Z</time>
      </trkpt>
      <trkpt lat="43.73139" lon="6.75468">
        <ele>954.74</ele>
        <time>2007-09-23T12:38:02Z</time>
      </trkpt>
      <trkpt lat="43.7313" lon="6.75455">
        <ele>956.464</ele>
        <time>2007-09-23T12:38:17Z</time>
      </trkpt>
      <trkpt lat="43.73119" lon="6.75444">
        <ele>957.273</ele>
        <time>2007-09-23T12:38:34Z</time>
      </trkpt>
      <trkpt lat="43.73109" lon="6.75432">
        <ele>957.07</ele>
        <time>2007-09-23T12:38:50Z</time>
      </trkpt>
      <trkpt lat="43.73099" lon="6.7542">
        <ele>959.225</ele>
        <time>2007-09-23T12:39:07Z</time>
      </trkpt>
      <trkpt lat="43.73089" lon="6.75408">
        <ele>960.238</ele>
        <time>2007-09-23T12:39:23Z</time>
      </trkpt>
      <trkpt lat="43.73086" lon="6.75404">
        <ele>960.992</ele>
        <time>2007-09-23T12:39:29Z</time>
      </trkpt>
      <trkpt lat="43.7308" lon="6.75401">
        <ele>960.326</ele>
        <time>2007-09-23T12:39:35Z</time>
      </trkpt>
      <trkpt lat="43.73066" lon="6.75389">
        <ele>961.795</ele>
        <time>2007-09-23T12:39:52Z</time>
      </trkpt>
      <trkpt lat="43.73056" lon="6.75382">
        <ele>961.93</ele>
        <time>2007-09-23T12:40:07Z</time>
      </trkpt>
      <trkpt lat="43.73045" lon="6.7537">
        <ele>963.464</ele>
        <time>2007-09-23T12:40:26Z</time>
      </trkpt>
      <trkpt lat="43.73032" lon="6.75359">
        <ele>964.779</ele>
        <time>2007-09-23T12:40:44Z</time>
      </trkpt>
      <trkpt lat="43.73023" lon="6.75347">
        <ele>965.663</ele>
        <time>2007-09-23T12:41:00Z</time>
      </trkpt>
      <trkpt lat="43.73011" lon="6.75336">
        <ele>967.418</ele>
        <time>2007-09-23T12:41:17Z</time>
      </trkpt>
      <trkpt lat="43.72998" lon="6.75326">
        <ele>968.191</ele>
        <time>2007-09-23T12:41:35Z</time>
      </trkpt>
      <trkpt lat="43.72983" lon="6.75317">
        <ele>969.781</ele>
        <time>2007-09-23T12:41:53Z</time>
      </trkpt>
      <trkpt lat="43.72976" lon="6.75313">
        <ele>970.357</ele>
        <time>2007-09-23T12:42:09Z</time>
      </trkpt>
      <trkpt lat="43.72976" lon="6.75316">
        <ele>968.485</ele>
        <time>2007-09-23T12:43:01Z</time>
      </trkpt>
      <trkpt lat="43.72968" lon="6.75306">
        <ele>970.215</ele>
        <time>2007-09-23T12:44:06Z</time>
      </trkpt>
      <trkpt lat="43.72959" lon="6.753">
        <ele>970.545</ele>
        <time>2007-09-23T12:44:20Z</time>
      </trkpt>
      <trkpt lat="43.72945" lon="6.75294">
        <ele>971.259</ele>
        <time>2007-09-23T12:44:37Z</time>
      </trkpt>
      <trkpt lat="43.72933" lon="6.75285">
        <ele>972.677</ele>
        <time>2007-09-23T12:44:53Z</time>
      </trkpt>
      <trkpt lat="43.7292" lon="6.7528">
        <ele>971.903</ele>
        <time>2007-09-23T12:45:08Z</time>
      </trkpt>
      <trkpt lat="43.72906" lon="6.75275">
        <ele>972.085</ele>
        <time>2007-09-23T12:45:25Z</time>
      </trkpt>
      <trkpt lat="43.72898" lon="6.75273">
        <ele>972.066</ele>
        <time>2007-09-23T12:45:38Z</time>
      </trkpt>
      <trkpt lat="43.72887" lon="6.75268">
        <ele>972.005</ele>
        <time>2007-09-23T12:45:54Z</time>
      </trkpt>
      <trkpt lat="43.72875" lon="6.75269">
        <ele>970.438</ele>
        <time>2007-09-23T12:46:12Z</time>
      </trkpt>
      <trkpt lat="43.72859" lon="6.75263">
        <ele>971.423</ele>
        <time>2007-09-23T12:46:30Z</time>
      </trkpt>
      <trkpt lat="43.72841" lon="6.75257">
        <ele>970.099</ele>
        <time>2007-09-23T12:46:48Z</time>
      </trkpt>
      <trkpt lat="43.72826" lon="6.75254">
        <ele>969.311</ele>
        <time>2007-09-23T12:47:06Z</time>
      </trkpt>
      <trkpt lat="43.72812" lon="6.75251">
        <ele>968.06</ele>
        <time>2007-09-23T12:47:22Z</time>
      </trkpt>
      <trkpt lat="43.72801" lon="6.7525">
        <ele>967.044</ele>
        <time>2007-09-23T12:47:37Z</time>
      </trkpt>
      <trkpt lat="43.72785" lon="6.75248">
        <ele>965.059</ele>
        <time>2007-09-23T12:47:54Z</time>
      </trkpt>
      <trkpt lat="43.72771" lon="6.75245">
        <ele>964.342</ele>
        <time>2007-09-23T12:48:10Z</time>
      </trkpt>
      <trkpt lat="43.72758" lon="6.75233">
        <ele>965.764</ele>
        <time>2007-09-23T12:48:28Z</time>
      </trkpt>
      <trkpt lat="43.72748" lon="6.75233">
        <ele>964.755</ele>
        <time>2007-09-23T12:48:43Z</time>
      </trkpt>
      <trkpt lat="43.72743" lon="6.75233">
        <ele>963.986</ele>
        <time>2007-09-23T12:48:47Z</time>
      </trkpt>
      <trkpt lat="43.72724" lon="6.75229">
        <ele>963.939</ele>
        <time>2007-09-23T12:49:05Z</time>
      </trkpt>
      <trkpt lat="43.72712" lon="6.7523">
        <ele>962.848</ele>
        <time>2007-09-23T12:49:20Z</time>
      </trkpt>
      <trkpt lat="43.727" lon="6.7523">
        <ele>961.905</ele>
        <time>2007-09-23T12:49:34Z</time>
      </trkpt>
      <trkpt lat="43.72685" lon="6.75225">
        <ele>961.028</ele>
        <time>2007-09-23T12:49:51Z</time>
      </trkpt>
      <trkpt lat="43.72676" lon="6.75224">
        <ele>960.767</ele>
        <time>2007-09-23T12:50:04Z</time>
      </trkpt>
      <trkpt lat="43.72667" lon="6.75221">
        <ele>961.272</ele>
        <time>2007-09-23T12:50:16Z</time>
      </trkpt>
      <trkpt lat="43.72657" lon="6.75222">
        <ele>960.595</ele>
        <time>2007-09-23T12:50:30Z</time>
      </trkpt>
      <trkpt lat="43.72644" lon="6.75218">
        <ele>959.932</ele>
        <time>2007-09-23T12:50:46Z</time>
      </trkpt>
      <trkpt lat="43.72633" lon="6.75216">
        <ele>958.975</ele>
        <time>2007-09-23T12:51:02Z</time>
      </trkpt>
      <trkpt lat="43.72625" lon="6.75213">
        <ele>959.705</ele>
        <time>2007-09-23T12:51:17Z</time>
      </trkpt>
      <trkpt lat="43.72617" lon="6.75212">
        <ele>959.534</ele>
        <time>2007-09-23T12:51:30Z</time>
      </trkpt>
      <trkpt lat="43.7261" lon="6.75212">
        <ele>959.092</ele>
        <time>2007-09-23T12:51:43Z</time>
      </trkpt>
      <trkpt lat="43.72599" lon="6.75208">
        <ele>958.712</ele>
        <time>2007-09-23T12:52:00Z</time>
      </trkpt>
      <trkpt lat="43.7259" lon="6.75205">
        <ele>959.186</ele>
        <time>2007-09-23T12:52:13Z</time>
      </trkpt>
      <trkpt lat="43.7258" lon="6.75201">
        <ele>959.843</ele>
        <time>2007-09-23T12:52:27Z</time>
      </trkpt>
      <trkpt lat="43.72574" lon="6.75196">
        <ele>961.781</ele>
        <time>2007-09-23T12:52:43Z</time>
      </trkpt>
      <trkpt lat="43.72571" lon="6.752">
        <ele>959.719</ele>
        <time>2007-09-23T12:52:58Z</time>
      </trkpt>
      <trkpt lat="43.72567" lon="6.75201">
        <ele>958.678</ele>
        <time>2007-09-23T12:53:11Z</time>
      </trkpt>
      <trkpt lat="43.72557" lon="6.75195">
        <ele>959.289</ele>
        <time>2007-09-23T12:53:25Z</time>
      </trkpt>
      <trkpt lat="43.72546" lon="6.7519">
        <ele>960.373</ele>
        <time>2007-09-23T12:53:43Z</time>
      </trkpt>
      <trkpt lat="43.72537" lon="6.75189">
        <ele>959.683</ele>
        <time>2007-09-23T12:53:55Z</time>
      </trkpt>
      <trkpt lat="43.72529" lon="6.75188">
        <ele>960.298</ele>
        <time>2007-09-23T12:54:13Z</time>
      </trkpt>
      <trkpt lat="43.72517" lon="6.75178">
        <ele>961.474</ele>
        <time>2007-09-23T12:54:28Z</time>
      </trkpt>
      <trkpt lat="43.72511" lon="6.75174">
        <ele>961.921</ele>
        <time>2007-09-23T12:54:46Z</time>
      </trkpt>
      <trkpt lat="43.72495" lon="6.75173">
        <ele>960.088</ele>
        <time>2007-09-23T12:55:05Z</time>
      </trkpt>
      <trkpt lat="43.72483" lon="6.75172">
        <ele>956.176</ele>
        <time>2007-09-23T12:55:18Z</time>
      </trkpt>
      <trkpt lat="43.72483" lon="6.75172">
        <ele>960.226</ele>
        <time>2007-09-23T12:55:19Z</time>
      </trkpt>
      <trkpt lat="43.72482" lon="6.75172">
        <ele>964.213</ele>
        <time>2007-09-23T12:55:20Z</time>
      </trkpt>
      <trkpt lat="43.72481" lon="6.75172">
        <ele>958.176</ele>
        <time>2007-09-23T12:55:21Z</time>
      </trkpt>
      <trkpt lat="43.72479" lon="6.75171">
        <ele>963.647</ele>
        <time>2007-09-23T12:55:23Z</time>
      </trkpt>
      <trkpt lat="43.72479" lon="6.75171">
        <ele>961.808</ele>
        <time>2007-09-23T12:55:24Z</time>
      </trkpt>
      <trkpt lat="43.72471" lon="6.75169">
        <ele>954.488</ele>
        <time>2007-09-23T12:55:35Z</time>
      </trkpt>
      <trkpt lat="43.72471" lon="6.75169">
        <ele>959.889</ele>
        <time>2007-09-23T12:55:36Z</time>
      </trkpt>
      <trkpt lat="43.72468" lon="6.75169">
        <ele>959.799</ele>
        <time>2007-09-23T12:55:44Z</time>
      </trkpt>
      <trkpt lat="43.72447" lon="6.75154">
        <ele>959.601</ele>
        <time>2007-09-23T12:56:05Z</time>
      </trkpt>
      <trkpt lat="43.72427" lon="6.75139">
        <ele>958.99</ele>
        <time>2007-09-23T12:56:26Z</time>
      </trkpt>
      <trkpt lat="43.72403" lon="6.75134">
        <ele>958.245</ele>
        <time>2007-09-23T12:56:46Z</time>
      </trkpt>
      <trkpt lat="43.72382" lon="6.75131">
        <ele>958.08</ele>
        <time>2007-09-23T12:57:06Z</time>
      </trkpt>
      <trkpt lat="43.72361" lon="6.75128">
        <ele>958.121</ele>
        <time>2007-09-23T12:57:25Z</time>
      </trkpt>
      <trkpt lat="43.72341" lon="6.75123">
        <ele>958.274</ele>
        <time>2007-09-23T12:57:43Z</time>
      </trkpt>
      <trkpt lat="43.7232" lon="6.75117">
        <ele>959.105</ele>
        <time>2007-09-23T12:58:03Z</time>
      </trkpt>
      <trkpt lat="43.72301" lon="6.75113">
        <ele>961.304</ele>
        <time>2007-09-23T12:58:21Z</time>
      </trkpt>
      <trkpt lat="43.72278" lon="6.75113">
        <ele>961.502</ele>
        <time>2007-09-23T12:58:42Z</time>
      </trkpt>
      <trkpt lat="43.72258" lon="6.75108">
        <ele>962.314</ele>
        <time>2007-09-23T12:59:01Z</time>
      </trkpt>
      <trkpt lat="43.72233" lon="6.75103">
        <ele>962.504</ele>
        <time>2007-09-23T12:59:24Z</time>
      </trkpt>
      <trkpt lat="43.7221" lon="6.75102">
        <ele>963.644</ele>
        <time>2007-09-23T12:59:45Z</time>
      </trkpt>
      <trkpt lat="43.72191" lon="6.75099">
        <ele>964.139</ele>
        <time>2007-09-23T13:00:03Z</time>
      </trkpt>
      <trkpt lat="43.72171" lon="6.75094">
        <ele>965.481</ele>
        <time>2007-09-23T13:00:23Z</time>
      </trkpt>
      <trkpt lat="43.72154" lon="6.75086">
        <ele>966.776</ele>
        <time>2007-09-23T13:00:40Z</time>
      </trkpt>
      <trkpt lat="43.72132" lon="6.75081">
        <ele>967.414</ele>
        <time>2007-09-23T13:01:00Z</time>
      </trkpt>
      <trkpt lat="43.72113" lon="6.7507">
        <ele>967.6</ele>
        <time>2007-09-23T13:01:20Z</time>
      </trkpt>
      <trkpt lat="43.72094" lon="6.7506">
        <ele>968.149</ele>
        <time>2007-09-23T13:01:40Z</time>
      </trkpt>
      <trkpt lat="43.72072" lon="6.75048">
        <ele>968.571</ele>
        <time>2007-09-23T13:02:02Z</time>
      </trkpt>
      <trkpt lat="43.72048" lon="6.75036">
        <ele>968.952</ele>
        <time>2007-09-23T13:02:25Z</time>
      </trkpt>
      <trkpt lat="43.72025" lon="6.75027">
        <ele>968.427</ele>
        <time>2007-09-23T13:02:46Z</time>
      </trkpt>
      <trkpt lat="43.7202" lon="6.75022">
        <ele>969.45</ele>
        <time>2007-09-23T13:03:04Z</time>
      </trkpt>
      <trkpt lat="43.72013" lon="6.7501">
        <ele>969.367</ele>
        <time>2007-09-23T13:03:28Z</time>
      </trkpt>
      <trkpt lat="43.72003" lon="6.74999">
        <ele>970.932</ele>
        <time>2007-09-23T13:03:46Z</time>
      </trkpt>
      <trkpt lat="43.71989" lon="6.74987">
        <ele>972.065</ele>
        <time>2007-09-23T13:04:04Z</time>
      </trkpt>
      <trkpt lat="43.71979" lon="6.74978">
        <ele>975.173</ele>
        <time>2007-09-23T13:04:18Z</time>
      </trkpt>
      <trkpt lat="43.71966" lon="6.74965">
        <ele>975.039</ele>
        <time>2007-09-23T13:04:36Z</time>
      </trkpt>
      <trkpt lat="43.71954" lon="6.74954">
        <ele>976.52</ele>
        <time>2007-09-23T13:04:58Z</time>
      </trkpt>
      <trkpt lat="43.71951" lon="6.74956">
        <ele>975.675</ele>
        <time>2007-09-23T13:05:11Z</time>
      </trkpt>
      <trkpt lat="43.71948" lon="6.74948">
        <ele>977.049</ele>
        <time>2007-09-23T13:05:30Z</time>
      </trkpt>
      <trkpt lat="43.71934" lon="6.74931">
        <ele>977.615</ele>
        <time>2007-09-23T13:05:49Z</time>
      </trkpt>
      <trkpt lat="43.71932" lon="6.7493">
        <ele>974.595</ele>
        <time>2007-09-23T13:05:51Z</time>
      </trkpt>
      <trkpt lat="43.71931" lon="6.74929">
        <ele>975.773</ele>
        <time>2007-09-23T13:05:52Z</time>
      </trkpt>
      <trkpt lat="43.71931" lon="6.74928">
        <ele>978.915</ele>
        <time>2007-09-23T13:05:53Z</time>
      </trkpt>
      <trkpt lat="43.7193" lon="6.74928">
        <ele>978.371</ele>
        <time>2007-09-23T13:05:54Z</time>
      </trkpt>
      <trkpt lat="43.71919" lon="6.74912">
        <ele>978.914</ele>
        <time>2007-09-23T13:06:13Z</time>
      </trkpt>
      <trkpt lat="43.71903" lon="6.74892">
        <ele>979.056</ele>
        <time>2007-09-23T13:06:34Z</time>
      </trkpt>
      <trkpt lat="43.71886" lon="6.74878">
        <ele>979.467</ele>
        <time>2007-09-23T13:06:54Z</time>
      </trkpt>
      <trkpt lat="43.71879" lon="6.7487">
        <ele>979.323</ele>
        <time>2007-09-23T13:07:15Z</time>
      </trkpt>
      <trkpt lat="43.71879" lon="6.7487">
        <ele>978.456</ele>
        <time>2007-09-23T13:07:40Z</time>
      </trkpt>
      <trkpt lat="43.71878" lon="6.74871">
        <ele>978.608</ele>
        <time>2007-09-23T13:08:12Z</time>
      </trkpt>
      <trkpt lat="43.71878" lon="6.74871">
        <ele>979.18</ele>
        <time>2007-09-23T13:08:33Z</time>
      </trkpt>
      <trkpt lat="43.71878" lon="6.74867">
        <ele>978.596</ele>
        <time>2007-09-23T13:09:31Z</time>
      </trkpt>
      <trkpt lat="43.71877" lon="6.7487">
        <ele>979.241</ele>
        <time>2007-09-23T13:09:50Z</time>
      </trkpt>
      <trkpt lat="43.71876" lon="6.7487">
        <ele>979.924</ele>
        <time>2007-09-23T13:10:32Z</time>
      </trkpt>
      <trkpt lat="43.71863" lon="6.74851">
        <ele>981.188</ele>
        <time>2007-09-23T13:10:54Z</time>
      </trkpt>
      <trkpt lat="43.71839" lon="6.74834">
        <ele>980.079</ele>
        <time>2007-09-23T13:11:20Z</time>
      </trkpt>
      <trkpt lat="43.71815" lon="6.74822">
        <ele>981.057</ele>
        <time>2007-09-23T13:11:45Z</time>
      </trkpt>
      <trkpt lat="43.71793" lon="6.74811">
        <ele>982.438</ele>
        <time>2007-09-23T13:12:11Z</time>
      </trkpt>
      <trkpt lat="43.71774" lon="6.74794">
        <ele>984.093</ele>
        <time>2007-09-23T13:12:34Z</time>
      </trkpt>
      <trkpt lat="43.71753" lon="6.74785">
        <ele>984.557</ele>
        <time>2007-09-23T13:12:55Z</time>
      </trkpt>
      <trkpt lat="43.71732" lon="6.74782">
        <ele>984.633</ele>
        <time>2007-09-23T13:13:13Z</time>
      </trkpt>
      <trkpt lat="43.71711" lon="6.74779">
        <ele>985.089</ele>
        <time>2007-09-23T13:13:34Z</time>
      </trkpt>
      <trkpt lat="43.71705" lon="6.74776">
        <ele>984.835</ele>
        <time>2007-09-23T13:13:46Z</time>
      </trkpt>
      <trkpt lat="43.71691" lon="6.74771">
        <ele>984.983</ele>
        <time>2007-09-23T13:14:01Z</time>
      </trkpt>
      <trkpt lat="43.71671" lon="6.74764">
        <ele>985.344</ele>
        <time>2007-09-23T13:14:22Z</time>
      </trkpt>
      <trkpt lat="43.71657" lon="6.74767">
        <ele>984.587</ele>
        <time>2007-09-23T13:14:42Z</time>
      </trkpt>
      <trkpt lat="43.71654" lon="6.74771">
        <ele>983.966</ele>
        <time>2007-09-23T13:15:07Z</time>
      </trkpt>
      <trkpt lat="43.7165" lon="6.74778">
        <ele>983.698</ele>
        <time>2007-09-23T13:15:16Z</time>
      </trkpt>
      <trkpt lat="43.71649" lon="6.74784">
        <ele>983.078</ele>
        <time>2007-09-23T13:15:20Z</time>
      </trkpt>
      <trkpt lat="43.71636" lon="6.74801">
        <ele>982.243</ele>
        <time>2007-09-23T13:15:39Z</time>
      </trkpt>
      <trkpt lat="43.71627" lon="6.74814">
        <ele>980.975</ele>
        <time>2007-09-23T13:16:00Z</time>
      </trkpt>
      <trkpt lat="43.71618" lon="6.74829">
        <ele>979.958</ele>
        <time>2007-09-23T13:16:17Z</time>
      </trkpt>
      <trkpt lat="43.71615" lon="6.74834">
        <ele>979.587</ele>
        <time>2007-09-23T13:16:27Z</time>
      </trkpt>
      <trkpt lat="43.71612" lon="6.74844">
        <ele>979.429</ele>
        <time>2007-09-23T13:16:39Z</time>
      </trkpt>
      <trkpt lat="43.71614" lon="6.74844">
        <ele>979.641</ele>
        <time>2007-09-23T13:17:04Z</time>
      </trkpt>
      <trkpt lat="43.7161" lon="6.74848">
        <ele>979.197</ele>
        <time>2007-09-23T13:17:23Z</time>
      </trkpt>
      <trkpt lat="43.71603" lon="6.74855">
        <ele>980.072</ele>
        <time>2007-09-23T13:17:38Z</time>
      </trkpt>
      <trkpt lat="43.71591" lon="6.74872">
        <ele>977.886</ele>
        <time>2007-09-23T13:17:54Z</time>
      </trkpt>
      <trkpt lat="43.71592" lon="6.74882">
        <ele>977</ele>
        <time>2007-09-23T13:18:07Z</time>
      </trkpt>
      <trkpt lat="43.7159" lon="6.74899">
        <ele>976.529</ele>
        <time>2007-09-23T13:18:25Z</time>
      </trkpt>
      <trkpt lat="43.71599" lon="6.7491">
        <ele>975.217</ele>
        <time>2007-09-23T13:18:41Z</time>
      </trkpt>
      <trkpt lat="43.71603" lon="6.7492">
        <ele>973.903</ele>
        <time>2007-09-23T13:18:57Z</time>
      </trkpt>
      <trkpt lat="43.71608" lon="6.74925">
        <ele>973.985</ele>
        <time>2007-09-23T13:19:14Z</time>
      </trkpt>
      <trkpt lat="43.71611" lon="6.74928">
        <ele>973.897</ele>
        <time>2007-09-23T13:19:33Z</time>
      </trkpt>
      <trkpt lat="43.7162" lon="6.74931">
        <ele>972.768</ele>
        <time>2007-09-23T13:19:49Z</time>
      </trkpt>
      <trkpt lat="43.71624" lon="6.74934">
        <ele>971.602</ele>
        <time>2007-09-23T13:20:03Z</time>
      </trkpt>
      <trkpt lat="43.71626" lon="6.74932">
        <ele>971.85</ele>
        <time>2007-09-23T13:20:31Z</time>
      </trkpt>
      <trkpt lat="43.71625" lon="6.74933">
        <ele>971.634</ele>
        <time>2007-09-23T13:20:58Z</time>
      </trkpt>
      <trkpt lat="43.71626" lon="6.74938">
        <ele>971.287</ele>
        <time>2007-09-23T13:21:25Z</time>
      </trkpt>
      <trkpt lat="43.7163" lon="6.74947">
        <ele>970.559</ele>
        <time>2007-09-23T13:21:34Z</time>
      </trkpt>
      <trkpt lat="43.71632" lon="6.7496">
        <ele>968.641</ele>
        <time>2007-09-23T13:21:45Z</time>
      </trkpt>
      <trkpt lat="43.71635" lon="6.74977">
        <ele>965.897</ele>
        <time>2007-09-23T13:22:03Z</time>
      </trkpt>
      <trkpt lat="43.7164" lon="6.74982">
        <ele>963.504</ele>
        <time>2007-09-23T13:22:14Z</time>
      </trkpt>
      <trkpt lat="43.7165" lon="6.74997">
        <ele>962.953</ele>
        <time>2007-09-23T13:22:32Z</time>
      </trkpt>
      <trkpt lat="43.71652" lon="6.75">
        <ele>960.791</ele>
        <time>2007-09-23T13:22:37Z</time>
      </trkpt>
      <trkpt lat="43.71659" lon="6.75012">
        <ele>957.886</ele>
        <time>2007-09-23T13:22:55Z</time>
      </trkpt>
      <trkpt lat="43.71668" lon="6.75022">
        <ele>956.016</ele>
        <time>2007-09-23T13:23:12Z</time>
      </trkpt>
      <trkpt lat="43.71676" lon="6.75033">
        <ele>953.074</ele>
        <time>2007-09-23T13:23:30Z</time>
      </trkpt>
      <trkpt lat="43.71684" lon="6.75039">
        <ele>950.801</ele>
        <time>2007-09-23T13:23:46Z</time>
      </trkpt>
      <trkpt lat="43.71691" lon="6.75042">
        <ele>948.437</ele>
        <time>2007-09-23T13:24:03Z</time>
      </trkpt>
      <trkpt lat="43.71699" lon="6.75047">
        <ele>945.972</ele>
        <time>2007-09-23T13:24:22Z</time>
      </trkpt>
      <trkpt lat="43.71707" lon="6.75053">
        <ele>942.694</ele>
        <time>2007-09-23T13:24:36Z</time>
      </trkpt>
      <trkpt lat="43.71716" lon="6.75059">
        <ele>941.325</ele>
        <time>2007-09-23T13:24:54Z</time>
      </trkpt>
      <trkpt lat="43.71723" lon="6.75063">
        <ele>938.157</ele>
        <time>2007-09-23T13:25:10Z</time>
      </trkpt>
      <trkpt lat="43.7173" lon="6.75066">
        <ele>935.919</ele>
        <time>2007-09-23T13:25:25Z</time>
      </trkpt>
      <trkpt lat="43.71737" lon="6.75071">
        <ele>932.482</ele>
        <time>2007-09-23T13:25:41Z</time>
      </trkpt>
      <trkpt lat="43.71743" lon="6.75082">
        <ele>930.698</ele>
        <time>2007-09-23T13:25:58Z</time>
      </trkpt>
      <trkpt lat="43.7175" lon="6.75089">
        <ele>928.354</ele>
        <time>2007-09-23T13:26:11Z</time>
      </trkpt>
      <trkpt lat="43.71758" lon="6.75096">
        <ele>926.205</ele>
        <time>2007-09-23T13:26:26Z</time>
      </trkpt>
      <trkpt lat="43.71766" lon="6.751">
        <ele>923.739</ele>
        <time>2007-09-23T13:26:38Z</time>
      </trkpt>
      <trkpt lat="43.71775" lon="6.75096">
        <ele>921.409</ele>
        <time>2007-09-23T13:26:52Z</time>
      </trkpt>
      <trkpt lat="43.71778" lon="6.75079">
        <ele>920.115</ele>
        <time>2007-09-23T13:27:08Z</time>
      </trkpt>
      <trkpt lat="43.71784" lon="6.75061">
        <ele>916.761</ele>
        <time>2007-09-23T13:27:24Z</time>
      </trkpt>
      <trkpt lat="43.71793" lon="6.75055">
        <ele>915.711</ele>
        <time>2007-09-23T13:27:42Z</time>
      </trkpt>
      <trkpt lat="43.71796" lon="6.75057">
        <ele>914.599</ele>
        <time>2007-09-23T13:27:47Z</time>
      </trkpt>
      <trkpt lat="43.71807" lon="6.75064">
        <ele>914.553</ele>
        <time>2007-09-23T13:28:02Z</time>
      </trkpt>
      <trkpt lat="43.71809" lon="6.75069">
        <ele>913.846</ele>
        <time>2007-09-23T13:28:08Z</time>
      </trkpt>
      <trkpt lat="43.71807" lon="6.75073">
        <ele>912.196</ele>
        <time>2007-09-23T13:28:13Z</time>
      </trkpt>
      <trkpt lat="43.7181" lon="6.7508">
        <ele>911.187</ele>
        <time>2007-09-23T13:28:22Z</time>
      </trkpt>
      <trkpt lat="43.71817" lon="6.75092">
        <ele>909.781</ele>
        <time>2007-09-23T13:28:36Z</time>
      </trkpt>
      <trkpt lat="43.71822" lon="6.75095">
        <ele>909.636</ele>
        <time>2007-09-23T13:28:57Z</time>
      </trkpt>
      <trkpt lat="43.71825" lon="6.75102">
        <ele>907.567</ele>
        <time>2007-09-23T13:29:19Z</time>
      </trkpt>
      <trkpt lat="43.71826" lon="6.75114">
        <ele>905.576</ele>
        <time>2007-09-23T13:29:34Z</time>
      </trkpt>
      <trkpt lat="43.71831" lon="6.75129">
        <ele>904.036</ele>
        <time>2007-09-23T13:29:47Z</time>
      </trkpt>
      <trkpt lat="43.71836" lon="6.75143">
        <ele>902.555</ele>
        <time>2007-09-23T13:29:59Z</time>
      </trkpt>
      <trkpt lat="43.71843" lon="6.75159">
        <ele>901.163</ele>
        <time>2007-09-23T13:30:14Z</time>
      </trkpt>
      <trkpt lat="43.71846" lon="6.7517">
        <ele>899.608</ele>
        <time>2007-09-23T13:30:24Z</time>
      </trkpt>
      <trkpt lat="43.71846" lon="6.75174">
        <ele>897.686</ele>
        <time>2007-09-23T13:30:27Z</time>
      </trkpt>
      <trkpt lat="43.71848" lon="6.75193">
        <ele>895.562</ele>
        <time>2007-09-23T13:30:44Z</time>
      </trkpt>
      <trkpt lat="43.71858" lon="6.7521">
        <ele>893.932</ele>
        <time>2007-09-23T13:30:59Z</time>
      </trkpt>
      <trkpt lat="43.71861" lon="6.75223">
        <ele>891.739</ele>
        <time>2007-09-23T13:31:10Z</time>
      </trkpt>
      <trkpt lat="43.71862" lon="6.75224">
        <ele>891.931</ele>
        <time>2007-09-23T13:31:11Z</time>
      </trkpt>
      <trkpt lat="43.71872" lon="6.75235">
        <ele>891.287</ele>
        <time>2007-09-23T13:31:21Z</time>
      </trkpt>
      <trkpt lat="43.71891" lon="6.7525">
        <ele>889.714</ele>
        <time>2007-09-23T13:31:40Z</time>
      </trkpt>
      <trkpt lat="43.71904" lon="6.75264">
        <ele>891.229</ele>
        <time>2007-09-23T13:31:58Z</time>
      </trkpt>
      <trkpt lat="43.71913" lon="6.75282">
        <ele>890.541</ele>
        <time>2007-09-23T13:32:15Z</time>
      </trkpt>
      <trkpt lat="43.71924" lon="6.75296">
        <ele>890.852</ele>
        <time>2007-09-23T13:32:31Z</time>
      </trkpt>
      <trkpt lat="43.71938" lon="6.75298">
        <ele>892.282</ele>
        <time>2007-09-23T13:32:49Z</time>
      </trkpt>
      <trkpt lat="43.71942" lon="6.753">
        <ele>893.33</ele>
        <time>2007-09-23T13:32:55Z</time>
      </trkpt>
      <trkpt lat="43.71953" lon="6.75318">
        <ele>893.488</ele>
        <time>2007-09-23T13:33:13Z</time>
      </trkpt>
      <trkpt lat="43.71961" lon="6.75332">
        <ele>893.825</ele>
        <time>2007-09-23T13:33:28Z</time>
      </trkpt>
      <trkpt lat="43.7197" lon="6.75352">
        <ele>894.629</ele>
        <time>2007-09-23T13:33:46Z</time>
      </trkpt>
      <trkpt lat="43.71982" lon="6.75371">
        <ele>894.014</ele>
        <time>2007-09-23T13:34:05Z</time>
      </trkpt>
      <trkpt lat="43.71996" lon="6.75386">
        <ele>894.535</ele>
        <time>2007-09-23T13:34:22Z</time>
      </trkpt>
      <trkpt lat="43.72008" lon="6.75399">
        <ele>895.072</ele>
        <time>2007-09-23T13:34:40Z</time>
      </trkpt>
      <trkpt lat="43.72019" lon="6.75413">
        <ele>894.546</ele>
        <time>2007-09-23T13:34:55Z</time>
      </trkpt>
      <trkpt lat="43.7203" lon="6.75425">
        <ele>893.79</ele>
        <time>2007-09-23T13:35:09Z</time>
      </trkpt>
      <trkpt lat="43.72041" lon="6.75439">
        <ele>893.636</ele>
        <time>2007-09-23T13:35:22Z</time>
      </trkpt>
      <trkpt lat="43.72056" lon="6.75452">
        <ele>892.069</ele>
        <time>2007-09-23T13:35:39Z</time>
      </trkpt>
      <trkpt lat="43.72057" lon="6.75453">
        <ele>892.611</ele>
        <time>2007-09-23T13:35:40Z</time>
      </trkpt>
      <trkpt lat="43.72064" lon="6.75464">
        <ele>891.368</ele>
        <time>2007-09-23T13:35:56Z</time>
      </trkpt>
      <trkpt lat="43.72076" lon="6.7548">
        <ele>891.08</ele>
        <time>2007-09-23T13:36:13Z</time>
      </trkpt>
      <trkpt lat="43.72083" lon="6.75496">
        <ele>888.729</ele>
        <time>2007-09-23T13:36:29Z</time>
      </trkpt>
      <trkpt lat="43.72082" lon="6.75509">
        <ele>886.459</ele>
        <time>2007-09-23T13:36:44Z</time>
      </trkpt>
      <trkpt lat="43.72082" lon="6.75515">
        <ele>885.738</ele>
        <time>2007-09-23T13:36:49Z</time>
      </trkpt>
      <trkpt lat="43.72087" lon="6.75539">
        <ele>883.146</ele>
        <time>2007-09-23T13:37:08Z</time>
      </trkpt>
      <trkpt lat="43.72089" lon="6.75556">
        <ele>880.914</ele>
        <time>2007-09-23T13:37:23Z</time>
      </trkpt>
      <trkpt lat="43.72092" lon="6.75573">
        <ele>879.011</ele>
        <time>2007-09-23T13:37:39Z</time>
      </trkpt>
      <trkpt lat="43.72102" lon="6.7558">
        <ele>879.001</ele>
        <time>2007-09-23T13:37:55Z</time>
      </trkpt>
      <trkpt lat="43.72106" lon="6.75594">
        <ele>877.53</ele>
        <time>2007-09-23T13:38:10Z</time>
      </trkpt>
      <trkpt lat="43.72109" lon="6.75602">
        <ele>876.365</ele>
        <time>2007-09-23T13:38:18Z</time>
      </trkpt>
      <trkpt lat="43.72118" lon="6.75617">
        <ele>873.6</ele>
        <time>2007-09-23T13:38:35Z</time>
      </trkpt>
      <trkpt lat="43.72118" lon="6.75624">
        <ele>872.643</ele>
        <time>2007-09-23T13:38:52Z</time>
      </trkpt>
      <trkpt lat="43.72122" lon="6.75624">
        <ele>872.912</ele>
        <time>2007-09-23T13:39:19Z</time>
      </trkpt>
      <trkpt lat="43.7212" lon="6.75624">
        <ele>872.398</ele>
        <time>2007-09-23T13:39:38Z</time>
      </trkpt>
      <trkpt lat="43.72119" lon="6.75628">
        <ele>872.1</ele>
        <time>2007-09-23T13:40:20Z</time>
      </trkpt>
      <trkpt lat="43.72121" lon="6.75637">
        <ele>870.869</ele>
        <time>2007-09-23T13:40:40Z</time>
      </trkpt>
      <trkpt lat="43.72129" lon="6.75649">
        <ele>868.313</ele>
        <time>2007-09-23T13:40:58Z</time>
      </trkpt>
      <trkpt lat="43.72133" lon="6.7566">
        <ele>867.256</ele>
        <time>2007-09-23T13:41:13Z</time>
      </trkpt>
      <trkpt lat="43.72137" lon="6.75668">
        <ele>866.575</ele>
        <time>2007-09-23T13:41:25Z</time>
      </trkpt>
      <trkpt lat="43.72145" lon="6.75678">
        <ele>864.555</ele>
        <time>2007-09-23T13:41:41Z</time>
      </trkpt>
      <trkpt lat="43.72149" lon="6.75686">
        <ele>862.862</ele>
        <time>2007-09-23T13:41:54Z</time>
      </trkpt>
      <trkpt lat="43.72154" lon="6.75695">
        <ele>861.297</ele>
        <time>2007-09-23T13:42:09Z</time>
      </trkpt>
      <trkpt lat="43.72162" lon="6.75699">
        <ele>860.316</ele>
        <time>2007-09-23T13:42:27Z</time>
      </trkpt>
      <trkpt lat="43.72157" lon="6.75708">
        <ele>858.313</ele>
        <time>2007-09-23T13:42:49Z</time>
      </trkpt>
      <trkpt lat="43.72151" lon="6.75718">
        <ele>857.311</ele>
        <time>2007-09-23T13:43:05Z</time>
      </trkpt>
      <trkpt lat="43.72153" lon="6.75726">
        <ele>856.068</ele>
        <time>2007-09-23T13:43:19Z</time>
      </trkpt>
      <trkpt lat="43.72151" lon="6.75723">
        <ele>856.469</ele>
        <time>2007-09-23T13:43:44Z</time>
      </trkpt>
      <trkpt lat="43.72149" lon="6.75722">
        <ele>856.223</ele>
        <time>2007-09-23T13:44:04Z</time>
      </trkpt>
      <trkpt lat="43.72148" lon="6.75721">
        <ele>856.484</ele>
        <time>2007-09-23T13:44:39Z</time>
      </trkpt>
      <trkpt lat="43.72149" lon="6.75722">
        <ele>857.036</ele>
        <time>2007-09-23T13:44:43Z</time>
      </trkpt>
      <trkpt lat="43.7215" lon="6.75721">
        <ele>856.609</ele>
        <time>2007-09-23T13:45:08Z</time>
      </trkpt>
      <trkpt lat="43.72149" lon="6.75717">
        <ele>856.94</ele>
        <time>2007-09-23T13:46:16Z</time>
      </trkpt>
      <trkpt lat="43.7215" lon="6.75716">
        <ele>857.228</ele>
        <time>2007-09-23T13:46:49Z</time>
      </trkpt>
      <trkpt lat="43.72155" lon="6.7571">
        <ele>858.046</ele>
        <time>2007-09-23T13:47:06Z</time>
      </trkpt>
      <trkpt lat="43.72165" lon="6.75705">
        <ele>858.546</ele>
        <time>2007-09-23T13:47:24Z</time>
      </trkpt>
      <trkpt lat="43.72173" lon="6.75709">
        <ele>857.096</ele>
        <time>2007-09-23T13:47:41Z</time>
      </trkpt>
      <trkpt lat="43.72179" lon="6.75718">
        <ele>855.391</ele>
        <time>2007-09-23T13:47:57Z</time>
      </trkpt>
      <trkpt lat="43.72189" lon="6.75729">
        <ele>853.353</ele>
        <time>2007-09-23T13:48:15Z</time>
      </trkpt>
      <trkpt lat="43.72191" lon="6.75739">
        <ele>851.949</ele>
        <time>2007-09-23T13:48:31Z</time>
      </trkpt>
      <trkpt lat="43.72196" lon="6.7575">
        <ele>850.5</ele>
        <time>2007-09-23T13:48:45Z</time>
      </trkpt>
      <trkpt lat="43.72193" lon="6.75752">
        <ele>851.185</ele>
        <time>2007-09-23T13:49:10Z</time>
      </trkpt>
      <trkpt lat="43.72185" lon="6.75758">
        <ele>849.022</ele>
        <time>2007-09-23T13:49:26Z</time>
      </trkpt>
      <trkpt lat="43.72177" lon="6.75764">
        <ele>847.856</ele>
        <time>2007-09-23T13:49:40Z</time>
      </trkpt>
      <trkpt lat="43.72168" lon="6.75771">
        <ele>846.776</ele>
        <time>2007-09-23T13:49:55Z</time>
      </trkpt>
      <trkpt lat="43.72164" lon="6.75777">
        <ele>844.436</ele>
        <time>2007-09-23T13:50:10Z</time>
      </trkpt>
      <trkpt lat="43.72164" lon="6.75786">
        <ele>844.48</ele>
        <time>2007-09-23T13:50:25Z</time>
      </trkpt>
      <trkpt lat="43.72172" lon="6.75794">
        <ele>842.345</ele>
        <time>2007-09-23T13:50:45Z</time>
      </trkpt>
      <trkpt lat="43.72174" lon="6.75807">
        <ele>840.521</ele>
        <time>2007-09-23T13:51:00Z</time>
      </trkpt>
      <trkpt lat="43.72174" lon="6.75818">
        <ele>837.3</ele>
        <time>2007-09-23T13:51:14Z</time>
      </trkpt>
      <trkpt lat="43.72177" lon="6.75834">
        <ele>835.823</ele>
        <time>2007-09-23T13:51:30Z</time>
      </trkpt>
      <trkpt lat="43.72178" lon="6.75847">
        <ele>834.218</ele>
        <time>2007-09-23T13:51:46Z</time>
      </trkpt>
      <trkpt lat="43.7218" lon="6.75854">
        <ele>832.696</ele>
        <time>2007-09-23T13:52:05Z</time>
      </trkpt>
      <trkpt lat="43.72184" lon="6.75873">
        <ele>831.28</ele>
        <time>2007-09-23T13:52:21Z</time>
      </trkpt>
      <trkpt lat="43.72189" lon="6.7589">
        <ele>828.742</ele>
        <time>2007-09-23T13:52:39Z</time>
      </trkpt>
      <trkpt lat="43.72193" lon="6.75901">
        <ele>827.274</ele>
        <time>2007-09-23T13:52:51Z</time>
      </trkpt>
      <trkpt lat="43.72194" lon="6.75915">
        <ele>825.606</ele>
        <time>2007-09-23T13:53:08Z</time>
      </trkpt>
      <trkpt lat="43.72191" lon="6.75932">
        <ele>823.259</ele>
        <time>2007-09-23T13:53:23Z</time>
      </trkpt>
      <trkpt lat="43.72196" lon="6.75944">
        <ele>822.236</ele>
        <time>2007-09-23T13:53:40Z</time>
      </trkpt>
      <trkpt lat="43.72197" lon="6.7595">
        <ele>821.22</ele>
        <time>2007-09-23T13:53:58Z</time>
      </trkpt>
      <trkpt lat="43.72196" lon="6.75959">
        <ele>819.375</ele>
        <time>2007-09-23T13:54:08Z</time>
      </trkpt>
      <trkpt lat="43.72195" lon="6.75966">
        <ele>818.525</ele>
        <time>2007-09-23T13:54:13Z</time>
      </trkpt>
      <trkpt lat="43.72193" lon="6.75982">
        <ele>815.88</ele>
        <time>2007-09-23T13:54:29Z</time>
      </trkpt>
      <trkpt lat="43.72193" lon="6.75997">
        <ele>813.786</ele>
        <time>2007-09-23T13:54:47Z</time>
      </trkpt>
      <trkpt lat="43.72198" lon="6.7601">
        <ele>812.313</ele>
        <time>2007-09-23T13:55:03Z</time>
      </trkpt>
      <trkpt lat="43.72205" lon="6.76026">
        <ele>809.996</ele>
        <time>2007-09-23T13:55:18Z</time>
      </trkpt>
      <trkpt lat="43.72209" lon="6.76042">
        <ele>808.248</ele>
        <time>2007-09-23T13:55:33Z</time>
      </trkpt>
      <trkpt lat="43.72218" lon="6.76056">
        <ele>806.695</ele>
        <time>2007-09-23T13:55:48Z</time>
      </trkpt>
      <trkpt lat="43.72223" lon="6.76065">
        <ele>805.155</ele>
        <time>2007-09-23T13:56:02Z</time>
      </trkpt>
      <trkpt lat="43.72223" lon="6.76075">
        <ele>803.971</ele>
        <time>2007-09-23T13:56:14Z</time>
      </trkpt>
      <trkpt lat="43.7223" lon="6.76085">
        <ele>801.843</ele>
        <time>2007-09-23T13:56:28Z</time>
      </trkpt>
      <trkpt lat="43.72237" lon="6.76095">
        <ele>800.954</ele>
        <time>2007-09-23T13:56:43Z</time>
      </trkpt>
      <trkpt lat="43.72237" lon="6.76095">
        <ele>799.432</ele>
        <time>2007-09-23T13:56:50Z</time>
      </trkpt>
      <trkpt lat="43.72237" lon="6.76095">
        <ele>804.33</ele>
        <time>2007-09-23T13:56:51Z</time>
      </trkpt>
      <trkpt lat="43.72237" lon="6.76095">
        <ele>801.298</ele>
        <time>2007-09-23T13:56:52Z</time>
      </trkpt>
      <trkpt lat="43.72244" lon="6.76108">
        <ele>799.911</ele>
        <time>2007-09-23T13:57:17Z</time>
      </trkpt>
      <trkpt lat="43.72249" lon="6.76117">
        <ele>797.742</ele>
        <time>2007-09-23T13:57:29Z</time>
      </trkpt>
      <trkpt lat="43.72255" lon="6.76143">
        <ele>795.511</ele>
        <time>2007-09-23T13:57:48Z</time>
      </trkpt>
      <trkpt lat="43.72262" lon="6.76157">
        <ele>793.342</ele>
        <time>2007-09-23T13:58:04Z</time>
      </trkpt>
      <trkpt lat="43.72267" lon="6.76164">
        <ele>791.925</ele>
        <time>2007-09-23T13:58:17Z</time>
      </trkpt>
      <trkpt lat="43.72276" lon="6.76175">
        <ele>789.003</ele>
        <time>2007-09-23T13:58:32Z</time>
      </trkpt>
      <trkpt lat="43.72274" lon="6.76182">
        <ele>786.824</ele>
        <time>2007-09-23T13:58:48Z</time>
      </trkpt>
      <trkpt lat="43.72276" lon="6.76192">
        <ele>785.709</ele>
        <time>2007-09-23T13:59:03Z</time>
      </trkpt>
      <trkpt lat="43.72281" lon="6.76197">
        <ele>782.638</ele>
        <time>2007-09-23T13:59:17Z</time>
      </trkpt>
      <trkpt lat="43.72284" lon="6.76204">
        <ele>781.158</ele>
        <time>2007-09-23T13:59:28Z</time>
      </trkpt>
      <trkpt lat="43.7229" lon="6.76208">
        <ele>778.48</ele>
        <time>2007-09-23T13:59:40Z</time>
      </trkpt>
      <trkpt lat="43.72294" lon="6.76206">
        <ele>777.084</ele>
        <time>2007-09-23T13:59:54Z</time>
      </trkpt>
      <trkpt lat="43.72302" lon="6.76204">
        <ele>775.434</ele>
        <time>2007-09-23T14:00:07Z</time>
      </trkpt>
      <trkpt lat="43.72308" lon="6.76201">
        <ele>774.193</ele>
        <time>2007-09-23T14:00:19Z</time>
      </trkpt>
      <trkpt lat="43.72312" lon="6.76201">
        <ele>772.696</ele>
        <time>2007-09-23T14:00:32Z</time>
      </trkpt>
      <trkpt lat="43.72321" lon="6.762">
        <ele>769.985</ele>
        <time>2007-09-23T14:00:45Z</time>
      </trkpt>
      <trkpt lat="43.72333" lon="6.76196">
        <ele>767.087</ele>
        <time>2007-09-23T14:01:05Z</time>
      </trkpt>
      <trkpt lat="43.72345" lon="6.76196">
        <ele>766.484</ele>
        <time>2007-09-23T14:01:19Z</time>
      </trkpt>
      <trkpt lat="43.72346" lon="6.76196">
        <ele>764.659</ele>
        <time>2007-09-23T14:01:22Z</time>
      </trkpt>
      <trkpt lat="43.72354" lon="6.76193">
        <ele>763.285</ele>
        <time>2007-09-23T14:01:39Z</time>
      </trkpt>
      <trkpt lat="43.72364" lon="6.76187">
        <ele>760.598</ele>
        <time>2007-09-23T14:01:56Z</time>
      </trkpt>
      <trkpt lat="43.72377" lon="6.76194">
        <ele>759.974</ele>
        <time>2007-09-23T14:02:13Z</time>
      </trkpt>
      <trkpt lat="43.72379" lon="6.76199">
        <ele>760.003</ele>
        <time>2007-09-23T14:02:33Z</time>
      </trkpt>
      <trkpt lat="43.72377" lon="6.76193">
        <ele>759.338</ele>
        <time>2007-09-23T14:04:53Z</time>
      </trkpt>
      <trkpt lat="43.72381" lon="6.76198">
        <ele>760.6</ele>
        <time>2007-09-23T14:05:18Z</time>
      </trkpt>
      <trkpt lat="43.72383" lon="6.76198">
        <ele>760.218</ele>
        <time>2007-09-23T14:06:00Z</time>
      </trkpt>
      <trkpt lat="43.72381" lon="6.762">
        <ele>759.287</ele>
        <time>2007-09-23T14:06:38Z</time>
      </trkpt>
      <trkpt lat="43.72382" lon="6.76201">
        <ele>758.598</ele>
        <time>2007-09-23T14:07:11Z</time>
      </trkpt>
      <trkpt lat="43.72382" lon="6.76201">
        <ele>758.883</ele>
        <time>2007-09-23T14:07:43Z</time>
      </trkpt>
      <trkpt lat="43.72384" lon="6.76201">
        <ele>758.815</ele>
        <time>2007-09-23T14:08:03Z</time>
      </trkpt>
      <trkpt lat="43.72395" lon="6.762">
        <ele>761.167</ele>
        <time>2007-09-23T14:08:21Z</time>
      </trkpt>
      <trkpt lat="43.724" lon="6.76206">
        <ele>763.549</ele>
        <time>2007-09-23T14:08:38Z</time>
      </trkpt>
      <trkpt lat="43.72396" lon="6.76214">
        <ele>765.638</ele>
        <time>2007-09-23T14:08:53Z</time>
      </trkpt>
      <trkpt lat="43.72396" lon="6.76221">
        <ele>766.458</ele>
        <time>2007-09-23T14:09:07Z</time>
      </trkpt>
      <trkpt lat="43.72404" lon="6.76223">
        <ele>768.185</ele>
        <time>2007-09-23T14:09:24Z</time>
      </trkpt>
      <trkpt lat="43.72411" lon="6.76216">
        <ele>769.86</ele>
        <time>2007-09-23T14:09:40Z</time>
      </trkpt>
      <trkpt lat="43.72415" lon="6.76202">
        <ele>771.571</ele>
        <time>2007-09-23T14:09:57Z</time>
      </trkpt>
      <trkpt lat="43.72418" lon="6.76192">
        <ele>772.737</ele>
        <time>2007-09-23T14:10:12Z</time>
      </trkpt>
      <trkpt lat="43.72425" lon="6.76181">
        <ele>773.86</ele>
        <time>2007-09-23T14:10:26Z</time>
      </trkpt>
      <trkpt lat="43.7243" lon="6.76172">
        <ele>776.028</ele>
        <time>2007-09-23T14:10:40Z</time>
      </trkpt>
      <trkpt lat="43.72432" lon="6.7617">
        <ele>777.552</ele>
        <time>2007-09-23T14:10:45Z</time>
      </trkpt>
      <trkpt lat="43.72439" lon="6.76173">
        <ele>780.216</ele>
        <time>2007-09-23T14:10:59Z</time>
      </trkpt>
      <trkpt lat="43.72445" lon="6.76184">
        <ele>781.456</ele>
        <time>2007-09-23T14:11:16Z</time>
      </trkpt>
      <trkpt lat="43.7245" lon="6.762">
        <ele>782.676</ele>
        <time>2007-09-23T14:11:33Z</time>
      </trkpt>
      <trkpt lat="43.72455" lon="6.76217">
        <ele>785.69</ele>
        <time>2007-09-23T14:11:50Z</time>
      </trkpt>
      <trkpt lat="43.7246" lon="6.76224">
        <ele>786.598</ele>
        <time>2007-09-23T14:12:05Z</time>
      </trkpt>
      <trkpt lat="43.72472" lon="6.76222">
        <ele>787.863</ele>
        <time>2007-09-23T14:12:22Z</time>
      </trkpt>
      <trkpt lat="43.72484" lon="6.76223">
        <ele>789.651</ele>
        <time>2007-09-23T14:12:40Z</time>
      </trkpt>
      <trkpt lat="43.72497" lon="6.76224">
        <ele>791.626</ele>
        <time>2007-09-23T14:13:00Z</time>
      </trkpt>
      <trkpt lat="43.72511" lon="6.76226">
        <ele>792.715</ele>
        <time>2007-09-23T14:13:18Z</time>
      </trkpt>
      <trkpt lat="43.72516" lon="6.76222">
        <ele>796.008</ele>
        <time>2007-09-23T14:13:26Z</time>
      </trkpt>
      <trkpt lat="43.72517" lon="6.76222">
        <ele>792.565</ele>
        <time>2007-09-23T14:13:28Z</time>
      </trkpt>
      <trkpt lat="43.72523" lon="6.76218">
        <ele>797.619</ele>
        <time>2007-09-23T14:13:37Z</time>
      </trkpt>
      <trkpt lat="43.72523" lon="6.76218">
        <ele>793.12</ele>
        <time>2007-09-23T14:13:38Z</time>
      </trkpt>
      <trkpt lat="43.72526" lon="6.76216">
        <ele>797.86</ele>
        <time>2007-09-23T14:13:43Z</time>
      </trkpt>
      <trkpt lat="43.72526" lon="6.76215">
        <ele>797.77</ele>
        <time>2007-09-23T14:13:44Z</time>
      </trkpt>
      <trkpt lat="43.72527" lon="6.76214">
        <ele>795.477</ele>
        <time>2007-09-23T14:13:46Z</time>
      </trkpt>
      <trkpt lat="43.72536" lon="6.76206">
        <ele>798.55</ele>
        <time>2007-09-23T14:14:00Z</time>
      </trkpt>
      <trkpt lat="43.72536" lon="6.76206">
        <ele>798.668</ele>
        <time>2007-09-23T14:14:01Z</time>
      </trkpt>
      <trkpt lat="43.72545" lon="6.76196">
        <ele>798.057</ele>
        <time>2007-09-23T14:14:18Z</time>
      </trkpt>
      <trkpt lat="43.72556" lon="6.76187">
        <ele>800.16</ele>
        <time>2007-09-23T14:14:36Z</time>
      </trkpt>
      <trkpt lat="43.72566" lon="6.76179">
        <ele>801.685</ele>
        <time>2007-09-23T14:14:54Z</time>
      </trkpt>
      <trkpt lat="43.72578" lon="6.76169">
        <ele>803.027</ele>
        <time>2007-09-23T14:15:14Z</time>
      </trkpt>
      <trkpt lat="43.72588" lon="6.76159">
        <ele>804.618</ele>
        <time>2007-09-23T14:15:30Z</time>
      </trkpt>
      <trkpt lat="43.726" lon="6.76147">
        <ele>806.28</ele>
        <time>2007-09-23T14:15:48Z</time>
      </trkpt>
      <trkpt lat="43.72612" lon="6.76139">
        <ele>808.258</ele>
        <time>2007-09-23T14:16:05Z</time>
      </trkpt>
      <trkpt lat="43.72621" lon="6.76133">
        <ele>810.49</ele>
        <time>2007-09-23T14:16:21Z</time>
      </trkpt>
      <trkpt lat="43.72632" lon="6.76128">
        <ele>812.571</ele>
        <time>2007-09-23T14:16:38Z</time>
      </trkpt>
      <trkpt lat="43.72642" lon="6.76126">
        <ele>812.944</ele>
        <time>2007-09-23T14:16:54Z</time>
      </trkpt>
      <trkpt lat="43.72653" lon="6.76121">
        <ele>813.983</ele>
        <time>2007-09-23T14:17:14Z</time>
      </trkpt>
      <trkpt lat="43.72666" lon="6.76116">
        <ele>816.085</ele>
        <time>2007-09-23T14:17:34Z</time>
      </trkpt>
      <trkpt lat="43.72678" lon="6.76109">
        <ele>818.049</ele>
        <time>2007-09-23T14:17:53Z</time>
      </trkpt>
      <trkpt lat="43.72693" lon="6.76101">
        <ele>820.094</ele>
        <time>2007-09-23T14:18:12Z</time>
      </trkpt>
      <trkpt lat="43.72711" lon="6.76099">
        <ele>821.272</ele>
        <time>2007-09-23T14:18:32Z</time>
      </trkpt>
      <trkpt lat="43.72726" lon="6.76099">
        <ele>821.826</ele>
        <time>2007-09-23T14:18:51Z</time>
      </trkpt>
      <trkpt lat="43.72744" lon="6.76096">
        <ele>821.378</ele>
        <time>2007-09-23T14:19:10Z</time>
      </trkpt>
      <trkpt lat="43.72762" lon="6.76097">
        <ele>821.834</ele>
        <time>2007-09-23T14:19:30Z</time>
      </trkpt>
      <trkpt lat="43.72782" lon="6.76103">
        <ele>821.721</ele>
        <time>2007-09-23T14:19:51Z</time>
      </trkpt>
      <trkpt lat="43.72791" lon="6.76106">
        <ele>821.805</ele>
        <time>2007-09-23T14:20:01Z</time>
      </trkpt>
      <trkpt lat="43.72801" lon="6.76109">
        <ele>821.892</ele>
        <time>2007-09-23T14:20:13Z</time>
      </trkpt>
      <trkpt lat="43.72823" lon="6.76114">
        <ele>822.506</ele>
        <time>2007-09-23T14:20:34Z</time>
      </trkpt>
      <trkpt lat="43.72827" lon="6.76118">
        <ele>822.893</ele>
        <time>2007-09-23T14:20:39Z</time>
      </trkpt>
      <trkpt lat="43.72831" lon="6.76148">
        <ele>822.839</ele>
        <time>2007-09-23T14:21:01Z</time>
      </trkpt>
      <trkpt lat="43.72834" lon="6.76183">
        <ele>823.704</ele>
        <time>2007-09-23T14:21:24Z</time>
      </trkpt>
      <trkpt lat="43.72838" lon="6.76217">
        <ele>823.287</ele>
        <time>2007-09-23T14:21:46Z</time>
      </trkpt>
      <trkpt lat="43.72842" lon="6.76257">
        <ele>824.689</ele>
        <time>2007-09-23T14:22:11Z</time>
      </trkpt>
      <trkpt lat="43.72845" lon="6.76299">
        <ele>824.83</ele>
        <time>2007-09-23T14:22:37Z</time>
      </trkpt>
      <trkpt lat="43.72847" lon="6.76332">
        <ele>825.152</ele>
        <time>2007-09-23T14:22:59Z</time>
      </trkpt>
      <trkpt lat="43.7285" lon="6.76371">
        <ele>825.343</ele>
        <time>2007-09-23T14:23:24Z</time>
      </trkpt>
      <trkpt lat="43.72853" lon="6.76411">
        <ele>826.907</ele>
        <time>2007-09-23T14:23:50Z</time>
      </trkpt>
      <trkpt lat="43.72854" lon="6.76438">
        <ele>828.718</ele>
        <time>2007-09-23T14:24:11Z</time>
      </trkpt>
      <trkpt lat="43.72856" lon="6.76465">
        <ele>831.104</ele>
        <time>2007-09-23T14:24:30Z</time>
      </trkpt>
      <trkpt lat="43.72863" lon="6.7649">
        <ele>832.292</ele>
        <time>2007-09-23T14:24:49Z</time>
      </trkpt>
      <trkpt lat="43.72867" lon="6.76496">
        <ele>832.659</ele>
        <time>2007-09-23T14:24:57Z</time>
      </trkpt>
      <trkpt lat="43.72881" lon="6.76502">
        <ele>833.819</ele>
        <time>2007-09-23T14:25:12Z</time>
      </trkpt>
      <trkpt lat="43.72893" lon="6.76504">
        <ele>834.691</ele>
        <time>2007-09-23T14:25:28Z</time>
      </trkpt>
      <trkpt lat="43.7291" lon="6.76509">
        <ele>835.541</ele>
        <time>2007-09-23T14:25:45Z</time>
      </trkpt>
      <trkpt lat="43.72923" lon="6.76503">
        <ele>836.316</ele>
        <time>2007-09-23T14:26:00Z</time>
      </trkpt>
      <trkpt lat="43.72923" lon="6.76501">
        <ele>836.389</ele>
        <time>2007-09-23T14:26:01Z</time>
      </trkpt>
      <trkpt lat="43.72922" lon="6.76485">
        <ele>836.65</ele>
        <time>2007-09-23T14:26:13Z</time>
      </trkpt>
      <trkpt lat="43.72916" lon="6.76465">
        <ele>837.568</ele>
        <time>2007-09-23T14:26:30Z</time>
      </trkpt>
      <trkpt lat="43.72904" lon="6.76451">
        <ele>840.045</ele>
        <time>2007-09-23T14:26:46Z</time>
      </trkpt>
      <trkpt lat="43.72897" lon="6.76445">
        <ele>840.029</ele>
        <time>2007-09-23T14:26:54Z</time>
      </trkpt>
      <trkpt lat="43.72893" lon="6.76418">
        <ele>841.125</ele>
        <time>2007-09-23T14:27:16Z</time>
      </trkpt>
      <trkpt lat="43.72897" lon="6.76395">
        <ele>842.535</ele>
        <time>2007-09-23T14:27:35Z</time>
      </trkpt>
      <trkpt lat="43.72899" lon="6.76387">
        <ele>843.006</ele>
        <time>2007-09-23T14:27:43Z</time>
      </trkpt>
      <trkpt lat="43.7291" lon="6.76362">
        <ele>844.987</ele>
        <time>2007-09-23T14:28:04Z</time>
      </trkpt>
      <trkpt lat="43.72919" lon="6.76336">
        <ele>846.562</ele>
        <time>2007-09-23T14:28:26Z</time>
      </trkpt>
      <trkpt lat="43.72919" lon="6.76334">
        <ele>846.782</ele>
        <time>2007-09-23T14:28:27Z</time>
      </trkpt>
      <trkpt lat="43.72922" lon="6.76309">
        <ele>847.372</ele>
        <time>2007-09-23T14:28:47Z</time>
      </trkpt>
      <trkpt lat="43.72925" lon="6.76283">
        <ele>848.513</ele>
        <time>2007-09-23T14:29:08Z</time>
      </trkpt>
      <trkpt lat="43.72928" lon="6.76256">
        <ele>848.856</ele>
        <time>2007-09-23T14:29:27Z</time>
      </trkpt>
      <trkpt lat="43.72933" lon="6.76227">
        <ele>850.006</ele>
        <time>2007-09-23T14:29:50Z</time>
      </trkpt>
      <trkpt lat="43.7294" lon="6.76202">
        <ele>851.272</ele>
        <time>2007-09-23T14:30:11Z</time>
      </trkpt>
      <trkpt lat="43.72949" lon="6.76177">
        <ele>852.876</ele>
        <time>2007-09-23T14:30:33Z</time>
      </trkpt>
      <trkpt lat="43.72966" lon="6.7616">
        <ele>854.221</ele>
        <time>2007-09-23T14:30:55Z</time>
      </trkpt>
      <trkpt lat="43.72983" lon="6.7615">
        <ele>855.922</ele>
        <time>2007-09-23T14:31:17Z</time>
      </trkpt>
      <trkpt lat="43.73" lon="6.76139">
        <ele>857.403</ele>
        <time>2007-09-23T14:31:39Z</time>
      </trkpt>
      <trkpt lat="43.73015" lon="6.76125">
        <ele>859.088</ele>
        <time>2007-09-23T14:31:58Z</time>
      </trkpt>
      <trkpt lat="43.73031" lon="6.76111">
        <ele>860.125</ele>
        <time>2007-09-23T14:32:19Z</time>
      </trkpt>
      <trkpt lat="43.73048" lon="6.76102">
        <ele>860.815</ele>
        <time>2007-09-23T14:32:39Z</time>
      </trkpt>
      <trkpt lat="43.7306" lon="6.76107">
        <ele>862.21</ele>
        <time>2007-09-23T14:32:59Z</time>
      </trkpt>
      <trkpt lat="43.73053" lon="6.76123">
        <ele>864.117</ele>
        <time>2007-09-23T14:33:16Z</time>
      </trkpt>
      <trkpt lat="43.73039" lon="6.76138">
        <ele>865.25</ele>
        <time>2007-09-23T14:33:36Z</time>
      </trkpt>
      <trkpt lat="43.73033" lon="6.76142">
        <ele>865.888</ele>
        <time>2007-09-23T14:33:43Z</time>
      </trkpt>
      <trkpt lat="43.73016" lon="6.7616">
        <ele>866.749</ele>
        <time>2007-09-23T14:34:05Z</time>
      </trkpt>
      <trkpt lat="43.72998" lon="6.7618">
        <ele>867.2</ele>
        <time>2007-09-23T14:34:29Z</time>
      </trkpt>
      <trkpt lat="43.7299" lon="6.76207">
        <ele>867.454</ele>
        <time>2007-09-23T14:34:52Z</time>
      </trkpt>
      <trkpt lat="43.73003" lon="6.76233">
        <ele>868.052</ele>
        <time>2007-09-23T14:35:17Z</time>
      </trkpt>
      <trkpt lat="43.73013" lon="6.76242">
        <ele>868.573</ele>
        <time>2007-09-23T14:35:29Z</time>
      </trkpt>
      <trkpt lat="43.7303" lon="6.76256">
        <ele>870.237</ele>
        <time>2007-09-23T14:35:51Z</time>
      </trkpt>
      <trkpt lat="43.73044" lon="6.76266">
        <ele>872.357</ele>
        <time>2007-09-23T14:36:11Z</time>
      </trkpt>
      <trkpt lat="43.73061" lon="6.76276">
        <ele>868.229</ele>
        <time>2007-09-23T14:36:31Z</time>
      </trkpt>
      <trkpt lat="43.73062" lon="6.76277">
        <ele>877.721</ele>
        <time>2007-09-23T14:36:32Z</time>
      </trkpt>
      <trkpt lat="43.73063" lon="6.76277">
        <ele>877.722</ele>
        <time>2007-09-23T14:36:33Z</time>
      </trkpt>
      <trkpt lat="43.73064" lon="6.76278">
        <ele>873.926</ele>
        <time>2007-09-23T14:36:34Z</time>
      </trkpt>
      <trkpt lat="43.73066" lon="6.76279">
        <ele>873.289</ele>
        <time>2007-09-23T14:36:36Z</time>
      </trkpt>
      <trkpt lat="43.73076" lon="6.76285">
        <ele>869.23</ele>
        <time>2007-09-23T14:36:46Z</time>
      </trkpt>
      <trkpt lat="43.73076" lon="6.76286">
        <ele>874.118</ele>
        <time>2007-09-23T14:36:47Z</time>
      </trkpt>
      <trkpt lat="43.731" lon="6.763">
        <ele>874.81</ele>
        <time>2007-09-23T14:37:12Z</time>
      </trkpt>
      <trkpt lat="43.73112" lon="6.76308">
        <ele>875.345</ele>
        <time>2007-09-23T14:37:28Z</time>
      </trkpt>
      <trkpt lat="43.73126" lon="6.7632">
        <ele>877.106</ele>
        <time>2007-09-23T14:37:48Z</time>
      </trkpt>
      <trkpt lat="43.7314" lon="6.76337">
        <ele>878.324</ele>
        <time>2007-09-23T14:38:08Z</time>
      </trkpt>
      <trkpt lat="43.73154" lon="6.76354">
        <ele>880.329</ele>
        <time>2007-09-23T14:38:29Z</time>
      </trkpt>
      <trkpt lat="43.73167" lon="6.7637">
        <ele>881.977</ele>
        <time>2007-09-23T14:38:49Z</time>
      </trkpt>
      <trkpt lat="43.73183" lon="6.7638">
        <ele>883.379</ele>
        <time>2007-09-23T14:39:08Z</time>
      </trkpt>
      <trkpt lat="43.73198" lon="6.76377">
        <ele>884.777</ele>
        <time>2007-09-23T14:39:26Z</time>
      </trkpt>
      <trkpt lat="43.732" lon="6.76376">
        <ele>884.611</ele>
        <time>2007-09-23T14:39:28Z</time>
      </trkpt>
      <trkpt lat="43.73222" lon="6.7636">
        <ele>885.357</ele>
        <time>2007-09-23T14:39:51Z</time>
      </trkpt>
      <trkpt lat="43.73239" lon="6.76346">
        <ele>885.141</ele>
        <time>2007-09-23T14:40:11Z</time>
      </trkpt>
      <trkpt lat="43.73255" lon="6.76333">
        <ele>885.791</ele>
        <time>2007-09-23T14:40:28Z</time>
      </trkpt>
      <trkpt lat="43.73268" lon="6.76322">
        <ele>887.019</ele>
        <time>2007-09-23T14:40:45Z</time>
      </trkpt>
      <trkpt lat="43.73285" lon="6.76309">
        <ele>888.955</ele>
        <time>2007-09-23T14:41:06Z</time>
      </trkpt>
      <trkpt lat="43.73302" lon="6.76302">
        <ele>891.974</ele>
        <time>2007-09-23T14:41:27Z</time>
      </trkpt>
      <trkpt lat="43.73315" lon="6.76306">
        <ele>892.593</ele>
        <time>2007-09-23T14:41:44Z</time>
      </trkpt>
      <trkpt lat="43.73331" lon="6.76314">
        <ele>892.962</ele>
        <time>2007-09-23T14:42:04Z</time>
      </trkpt>
      <trkpt lat="43.73346" lon="6.76321">
        <ele>892.745</ele>
        <time>2007-09-23T14:42:21Z</time>
      </trkpt>
      <trkpt lat="43.73365" lon="6.76328">
        <ele>893.481</ele>
        <time>2007-09-23T14:42:41Z</time>
      </trkpt>
      <trkpt lat="43.73376" lon="6.76334">
        <ele>893.419</ele>
        <time>2007-09-23T14:43:00Z</time>
      </trkpt>
      <trkpt lat="43.73379" lon="6.76335">
        <ele>892.091</ele>
        <time>2007-09-23T14:43:12Z</time>
      </trkpt>
      <trkpt lat="43.73379" lon="6.76335">
        <ele>895.238</ele>
        <time>2007-09-23T14:43:13Z</time>
      </trkpt>
      <trkpt lat="43.73379" lon="6.76335">
        <ele>893.959</ele>
        <time>2007-09-23T14:43:14Z</time>
      </trkpt>
    </trkseg>
  </trk>
</gpx>